<?xml version="1.0" encoding="UTF-8" standalone="no" ?>
<gpx xmlns="http://www.topografix.com/GPX/1/1" xmlns:xsi="http://www.w3.org/2001/XMLSchema-instance" xsi:schemaLocation="http://www.topografix.com/GPX/1/1 http://www.topografix.com/GPX/1/1/gpx.xsd" version="1.1" creator="VisuGPX - https://www.visugpx.com">
  <metadata>
    <name>Tour sur la Mandallaz</name>
    <desc><![CDATA[Ballade à proximité d\'Annecy]]></desc>
  </metadata>
  <trk>
    <name><![CDATA[Tour sur la Mandallaz]]></name>
    <trkseg>
      <trkpt lat="45.96046" lon="6.04334">
        <ele>492.812988</ele>
        <time>2011-04-16T14:00:47Z</time>
      </trkpt>
      <trkpt lat="45.96048" lon="6.04345">
        <ele>494.255005</ele>
        <time>2011-04-16T14:00:56Z</time>
      </trkpt>
      <trkpt lat="45.9605" lon="6.0435">
        <ele>494.735596</ele>
        <time>2011-04-16T14:01:02Z</time>
      </trkpt>
      <trkpt lat="45.96056" lon="6.04361">
        <ele>496.177734</ele>
        <time>2011-04-16T14:01:13Z</time>
      </trkpt>
      <trkpt lat="45.9606" lon="6.04375">
        <ele>497.619629</ele>
        <time>2011-04-16T14:01:25Z</time>
      </trkpt>
      <trkpt lat="45.96065" lon="6.04388">
        <ele>499.542236</ele>
        <time>2011-04-16T14:01:37Z</time>
      </trkpt>
      <trkpt lat="45.96071" lon="6.04403">
        <ele>500.984131</ele>
        <time>2011-04-16T14:01:50Z</time>
      </trkpt>
      <trkpt lat="45.96077" lon="6.04414">
        <ele>502.906738</ele>
        <time>2011-04-16T14:02:01Z</time>
      </trkpt>
      <trkpt lat="45.96081" lon="6.04419">
        <ele>503.868164</ele>
        <time>2011-04-16T14:02:07Z</time>
      </trkpt>
      <trkpt lat="45.96088" lon="6.04426">
        <ele>504.829468</ele>
        <time>2011-04-16T14:02:17Z</time>
      </trkpt>
      <trkpt lat="45.96096" lon="6.04434">
        <ele>505.790894</ele>
        <time>2011-04-16T14:02:27Z</time>
      </trkpt>
      <trkpt lat="45.96105" lon="6.04444">
        <ele>506.752075</ele>
        <time>2011-04-16T14:02:38Z</time>
      </trkpt>
      <trkpt lat="45.96115" lon="6.04453">
        <ele>506.752075</ele>
        <time>2011-04-16T14:02:48Z</time>
      </trkpt>
      <trkpt lat="45.96123" lon="6.0446">
        <ele>506.752075</ele>
        <time>2011-04-16T14:02:55Z</time>
      </trkpt>
      <trkpt lat="45.96133" lon="6.04468">
        <ele>506.271484</ele>
        <time>2011-04-16T14:03:04Z</time>
      </trkpt>
      <trkpt lat="45.96141" lon="6.04475">
        <ele>506.752075</ele>
        <time>2011-04-16T14:03:11Z</time>
      </trkpt>
      <trkpt lat="45.9615" lon="6.04477">
        <ele>507.232788</ele>
        <time>2011-04-16T14:03:20Z</time>
      </trkpt>
      <trkpt lat="45.96161" lon="6.04481">
        <ele>507.713501</ele>
        <time>2011-04-16T14:03:29Z</time>
      </trkpt>
      <trkpt lat="45.96174" lon="6.04494">
        <ele>508.194092</ele>
        <time>2011-04-16T14:03:40Z</time>
      </trkpt>
      <trkpt lat="45.96182" lon="6.045">
        <ele>508.194092</ele>
        <time>2011-04-16T14:03:47Z</time>
      </trkpt>
      <trkpt lat="45.9619" lon="6.04507">
        <ele>508.674683</ele>
        <time>2011-04-16T14:03:54Z</time>
      </trkpt>
      <trkpt lat="45.96195" lon="6.04515">
        <ele>508.674683</ele>
        <time>2011-04-16T14:03:58Z</time>
      </trkpt>
      <trkpt lat="45.96205" lon="6.0452">
        <ele>509.636108</ele>
        <time>2011-04-16T14:04:06Z</time>
      </trkpt>
      <trkpt lat="45.96215" lon="6.04529">
        <ele>509.636108</ele>
        <time>2011-04-16T14:04:15Z</time>
      </trkpt>
      <trkpt lat="45.96223" lon="6.04532">
        <ele>509.636108</ele>
        <time>2011-04-16T14:04:23Z</time>
      </trkpt>
      <trkpt lat="45.96228" lon="6.04536">
        <ele>510.116699</ele>
        <time>2011-04-16T14:04:30Z</time>
      </trkpt>
      <trkpt lat="45.96235" lon="6.04543">
        <ele>511.558716</ele>
        <time>2011-04-16T14:04:38Z</time>
      </trkpt>
      <trkpt lat="45.9624" lon="6.04549">
        <ele>512.52002</ele>
        <time>2011-04-16T14:04:43Z</time>
      </trkpt>
      <trkpt lat="45.96254" lon="6.0457">
        <ele>512.52002</ele>
        <time>2011-04-16T14:04:54Z</time>
      </trkpt>
      <trkpt lat="45.96263" lon="6.04578">
        <ele>513.000732</ele>
        <time>2011-04-16T14:05:01Z</time>
      </trkpt>
      <trkpt lat="45.96273" lon="6.04583">
        <ele>513.481445</ele>
        <time>2011-04-16T14:05:09Z</time>
      </trkpt>
      <trkpt lat="45.96285" lon="6.04588">
        <ele>513.962036</ele>
        <time>2011-04-16T14:05:18Z</time>
      </trkpt>
      <trkpt lat="45.96293" lon="6.04592">
        <ele>514.442627</ele>
        <time>2011-04-16T14:05:26Z</time>
      </trkpt>
      <trkpt lat="45.96303" lon="6.04598">
        <ele>515.884644</ele>
        <time>2011-04-16T14:05:35Z</time>
      </trkpt>
      <trkpt lat="45.96311" lon="6.04607">
        <ele>517.32666</ele>
        <time>2011-04-16T14:05:45Z</time>
      </trkpt>
      <trkpt lat="45.96314" lon="6.04613">
        <ele>517.807251</ele>
        <time>2011-04-16T14:05:48Z</time>
      </trkpt>
      <trkpt lat="45.96321" lon="6.04624">
        <ele>519.249268</ele>
        <time>2011-04-16T14:05:56Z</time>
      </trkpt>
      <trkpt lat="45.96328" lon="6.04639">
        <ele>520.210571</ele>
        <time>2011-04-16T14:06:04Z</time>
      </trkpt>
      <trkpt lat="45.96335" lon="6.04656">
        <ele>521.652588</ele>
        <time>2011-04-16T14:06:15Z</time>
      </trkpt>
      <trkpt lat="45.96341" lon="6.04666">
        <ele>522.133179</ele>
        <time>2011-04-16T14:06:23Z</time>
      </trkpt>
      <trkpt lat="45.96346" lon="6.04681">
        <ele>523.575195</ele>
        <time>2011-04-16T14:06:32Z</time>
      </trkpt>
      <trkpt lat="45.9635" lon="6.04699">
        <ele>523.575195</ele>
        <time>2011-04-16T14:06:40Z</time>
      </trkpt>
      <trkpt lat="45.96352" lon="6.04715">
        <ele>524.536499</ele>
        <time>2011-04-16T14:06:49Z</time>
      </trkpt>
      <trkpt lat="45.96356" lon="6.0473">
        <ele>524.055786</ele>
        <time>2011-04-16T14:06:57Z</time>
      </trkpt>
      <trkpt lat="45.96356" lon="6.04742">
        <ele>524.536499</ele>
        <time>2011-04-16T14:07:04Z</time>
      </trkpt>
      <trkpt lat="45.96356" lon="6.0476">
        <ele>525.017212</ele>
        <time>2011-04-16T14:07:13Z</time>
      </trkpt>
      <trkpt lat="45.96355" lon="6.04777">
        <ele>525.978394</ele>
        <time>2011-04-16T14:07:21Z</time>
      </trkpt>
      <trkpt lat="45.96356" lon="6.04793">
        <ele>526.459106</ele>
        <time>2011-04-16T14:07:29Z</time>
      </trkpt>
      <trkpt lat="45.96357" lon="6.04808">
        <ele>528.381836</ele>
        <time>2011-04-16T14:07:39Z</time>
      </trkpt>
      <trkpt lat="45.96359" lon="6.0482">
        <ele>529.34314</ele>
        <time>2011-04-16T14:07:46Z</time>
      </trkpt>
      <trkpt lat="45.96361" lon="6.04831">
        <ele>530.785156</ele>
        <time>2011-04-16T14:07:54Z</time>
      </trkpt>
      <trkpt lat="45.96362" lon="6.04839">
        <ele>530.785156</ele>
        <time>2011-04-16T14:08:00Z</time>
      </trkpt>
      <trkpt lat="45.96365" lon="6.04849">
        <ele>531.265747</ele>
        <time>2011-04-16T14:08:07Z</time>
      </trkpt>
      <trkpt lat="45.96365" lon="6.04857">
        <ele>531.265747</ele>
        <time>2011-04-16T14:08:13Z</time>
      </trkpt>
      <trkpt lat="45.96366" lon="6.04866">
        <ele>531.746338</ele>
        <time>2011-04-16T14:08:18Z</time>
      </trkpt>
      <trkpt lat="45.96367" lon="6.04884">
        <ele>532.707764</ele>
        <time>2011-04-16T14:08:26Z</time>
      </trkpt>
      <trkpt lat="45.9637" lon="6.04904">
        <ele>533.668945</ele>
        <time>2011-04-16T14:08:35Z</time>
      </trkpt>
      <trkpt lat="45.96373" lon="6.0492">
        <ele>533.668945</ele>
        <time>2011-04-16T14:08:42Z</time>
      </trkpt>
      <trkpt lat="45.96376" lon="6.04935">
        <ele>534.149658</ele>
        <time>2011-04-16T14:08:50Z</time>
      </trkpt>
      <trkpt lat="45.96379" lon="6.04947">
        <ele>535.110962</ele>
        <time>2011-04-16T14:08:57Z</time>
      </trkpt>
      <trkpt lat="45.9638" lon="6.04953">
        <ele>535.110962</ele>
        <time>2011-04-16T14:09:01Z</time>
      </trkpt>
      <trkpt lat="45.96381" lon="6.04973">
        <ele>536.553101</ele>
        <time>2011-04-16T14:09:11Z</time>
      </trkpt>
      <trkpt lat="45.96382" lon="6.0498">
        <ele>536.553101</ele>
        <time>2011-04-16T14:09:15Z</time>
      </trkpt>
      <trkpt lat="45.96385" lon="6.04991">
        <ele>537.514282</ele>
        <time>2011-04-16T14:09:23Z</time>
      </trkpt>
      <trkpt lat="45.96389" lon="6.05004">
        <ele>538.956299</ele>
        <time>2011-04-16T14:09:30Z</time>
      </trkpt>
      <trkpt lat="45.96393" lon="6.05021">
        <ele>539.917603</ele>
        <time>2011-04-16T14:09:39Z</time>
      </trkpt>
      <trkpt lat="45.96398" lon="6.05038">
        <ele>542.320923</ele>
        <time>2011-04-16T14:09:49Z</time>
      </trkpt>
      <trkpt lat="45.96403" lon="6.05046">
        <ele>542.801514</ele>
        <time>2011-04-16T14:09:56Z</time>
      </trkpt>
      <trkpt lat="45.96406" lon="6.05058">
        <ele>544.724243</ele>
        <time>2011-04-16T14:10:04Z</time>
      </trkpt>
      <trkpt lat="45.96407" lon="6.05063">
        <ele>545.685547</ele>
        <time>2011-04-16T14:10:07Z</time>
      </trkpt>
      <trkpt lat="45.9641" lon="6.0508">
        <ele>547.127441</ele>
        <time>2011-04-16T14:10:17Z</time>
      </trkpt>
      <trkpt lat="45.96413" lon="6.05089">
        <ele>548.569336</ele>
        <time>2011-04-16T14:10:24Z</time>
      </trkpt>
      <trkpt lat="45.96416" lon="6.05099">
        <ele>550.011475</ele>
        <time>2011-04-16T14:10:32Z</time>
      </trkpt>
      <trkpt lat="45.96419" lon="6.05113">
        <ele>551.453369</ele>
        <time>2011-04-16T14:10:42Z</time>
      </trkpt>
      <trkpt lat="45.96421" lon="6.05129">
        <ele>552.414551</ele>
        <time>2011-04-16T14:10:51Z</time>
      </trkpt>
      <trkpt lat="45.96425" lon="6.05143">
        <ele>554.337402</ele>
        <time>2011-04-16T14:11:01Z</time>
      </trkpt>
      <trkpt lat="45.96429" lon="6.05158">
        <ele>556.26001</ele>
        <time>2011-04-16T14:11:13Z</time>
      </trkpt>
      <trkpt lat="45.96432" lon="6.05173">
        <ele>558.182861</ele>
        <time>2011-04-16T14:11:22Z</time>
      </trkpt>
      <trkpt lat="45.96433" lon="6.05189">
        <ele>560.105225</ele>
        <time>2011-04-16T14:11:31Z</time>
      </trkpt>
      <trkpt lat="45.96433" lon="6.05199">
        <ele>562.028076</ele>
        <time>2011-04-16T14:11:38Z</time>
      </trkpt>
      <trkpt lat="45.96434" lon="6.05212">
        <ele>563.950439</ele>
        <time>2011-04-16T14:11:45Z</time>
      </trkpt>
      <trkpt lat="45.96436" lon="6.05224">
        <ele>563.950439</ele>
        <time>2011-04-16T14:11:53Z</time>
      </trkpt>
      <trkpt lat="45.96438" lon="6.05229">
        <ele>564.431152</ele>
        <time>2011-04-16T14:11:56Z</time>
      </trkpt>
      <trkpt lat="45.96439" lon="6.05235">
        <ele>564.911865</ele>
        <time>2011-04-16T14:12:00Z</time>
      </trkpt>
      <trkpt lat="45.96442" lon="6.05248">
        <ele>567.315186</ele>
        <time>2011-04-16T14:12:10Z</time>
      </trkpt>
      <trkpt lat="45.96446" lon="6.05265">
        <ele>568.276367</ele>
        <time>2011-04-16T14:12:20Z</time>
      </trkpt>
      <trkpt lat="45.96447" lon="6.0527">
        <ele>569.237793</ele>
        <time>2011-04-16T14:12:23Z</time>
      </trkpt>
      <trkpt lat="45.9645" lon="6.05286">
        <ele>571.1604</ele>
        <time>2011-04-16T14:12:33Z</time>
      </trkpt>
      <trkpt lat="45.96453" lon="6.05298">
        <ele>571.640869</ele>
        <time>2011-04-16T14:12:42Z</time>
      </trkpt>
      <trkpt lat="45.96455" lon="6.05314">
        <ele>571.640869</ele>
        <time>2011-04-16T14:12:51Z</time>
      </trkpt>
      <trkpt lat="45.9646" lon="6.05326">
        <ele>573.083252</ele>
        <time>2011-04-16T14:13:00Z</time>
      </trkpt>
      <trkpt lat="45.96464" lon="6.05337">
        <ele>574.525146</ele>
        <time>2011-04-16T14:13:08Z</time>
      </trkpt>
      <trkpt lat="45.96468" lon="6.05347">
        <ele>575.967041</ele>
        <time>2011-04-16T14:13:15Z</time>
      </trkpt>
      <trkpt lat="45.96473" lon="6.05364">
        <ele>577.40918</ele>
        <time>2011-04-16T14:13:25Z</time>
      </trkpt>
      <trkpt lat="45.96475" lon="6.05385">
        <ele>578.851074</ele>
        <time>2011-04-16T14:13:37Z</time>
      </trkpt>
      <trkpt lat="45.96476" lon="6.05393">
        <ele>580.773682</ele>
        <time>2011-04-16T14:13:43Z</time>
      </trkpt>
      <trkpt lat="45.96481" lon="6.05404">
        <ele>584.138184</ele>
        <time>2011-04-16T14:13:53Z</time>
      </trkpt>
      <trkpt lat="45.96481" lon="6.05406">
        <ele>584.138184</ele>
        <time>2011-04-16T14:13:54Z</time>
      </trkpt>
      <trkpt lat="45.96483" lon="6.05423">
        <ele>586.541504</ele>
        <time>2011-04-16T14:14:04Z</time>
      </trkpt>
      <trkpt lat="45.96484" lon="6.05442">
        <ele>588.945068</ele>
        <time>2011-04-16T14:14:14Z</time>
      </trkpt>
      <trkpt lat="45.96485" lon="6.05458">
        <ele>591.348145</ele>
        <time>2011-04-16T14:14:24Z</time>
      </trkpt>
      <trkpt lat="45.96486" lon="6.05472">
        <ele>593.751465</ele>
        <time>2011-04-16T14:14:34Z</time>
      </trkpt>
      <trkpt lat="45.9648" lon="6.05476">
        <ele>595.674072</ele>
        <time>2011-04-16T14:17:46Z</time>
      </trkpt>
      <trkpt lat="45.96478" lon="6.05478">
        <ele>595.674072</ele>
        <time>2011-04-16T14:17:59Z</time>
      </trkpt>
      <trkpt lat="45.96474" lon="6.05478">
        <ele>601.922607</ele>
        <time>2011-04-16T14:18:44Z</time>
      </trkpt>
      <trkpt lat="45.9647" lon="6.05473">
        <ele>603.364502</ele>
        <time>2011-04-16T14:18:51Z</time>
      </trkpt>
      <trkpt lat="45.96463" lon="6.0547">
        <ele>605.287354</ele>
        <time>2011-04-16T14:19:00Z</time>
      </trkpt>
      <trkpt lat="45.96454" lon="6.05466">
        <ele>607.209961</ele>
        <time>2011-04-16T14:19:12Z</time>
      </trkpt>
      <trkpt lat="45.96448" lon="6.05469">
        <ele>609.132568</ele>
        <time>2011-04-16T14:19:20Z</time>
      </trkpt>
      <trkpt lat="45.96445" lon="6.0547">
        <ele>611.055176</ele>
        <time>2011-04-16T14:19:24Z</time>
      </trkpt>
      <trkpt lat="45.96437" lon="6.05474">
        <ele>613.458496</ele>
        <time>2011-04-16T14:19:32Z</time>
      </trkpt>
      <trkpt lat="45.96432" lon="6.05474">
        <ele>614.900391</ele>
        <time>2011-04-16T14:19:36Z</time>
      </trkpt>
      <trkpt lat="45.96431" lon="6.05476">
        <ele>615.861816</ele>
        <time>2011-04-16T14:19:40Z</time>
      </trkpt>
      <trkpt lat="45.96427" lon="6.05481">
        <ele>617.78418</ele>
        <time>2011-04-16T14:19:48Z</time>
      </trkpt>
      <trkpt lat="45.96429" lon="6.05487">
        <ele>620.187744</ele>
        <time>2011-04-16T14:19:54Z</time>
      </trkpt>
      <trkpt lat="45.96432" lon="6.05488">
        <ele>622.591064</ele>
        <time>2011-04-16T14:20:03Z</time>
      </trkpt>
      <trkpt lat="45.96434" lon="6.05498">
        <ele>625.474854</ele>
        <time>2011-04-16T14:20:14Z</time>
      </trkpt>
      <trkpt lat="45.96435" lon="6.05501">
        <ele>626.916992</ele>
        <time>2011-04-16T14:20:22Z</time>
      </trkpt>
      <trkpt lat="45.9644" lon="6.05507">
        <ele>628.358887</ele>
        <time>2011-04-16T14:20:28Z</time>
      </trkpt>
      <trkpt lat="45.96447" lon="6.05507">
        <ele>630.762207</ele>
        <time>2011-04-16T14:20:36Z</time>
      </trkpt>
      <trkpt lat="45.96451" lon="6.05509">
        <ele>631.24292</ele>
        <time>2011-04-16T14:20:40Z</time>
      </trkpt>
      <trkpt lat="45.96456" lon="6.05517">
        <ele>632.204102</ele>
        <time>2011-04-16T14:20:46Z</time>
      </trkpt>
      <trkpt lat="45.9646" lon="6.05526">
        <ele>633.165283</ele>
        <time>2011-04-16T14:20:54Z</time>
      </trkpt>
      <trkpt lat="45.96464" lon="6.05532">
        <ele>633.645996</ele>
        <time>2011-04-16T14:21:00Z</time>
      </trkpt>
      <trkpt lat="45.96466" lon="6.05539">
        <ele>635.568604</ele>
        <time>2011-04-16T14:21:07Z</time>
      </trkpt>
      <trkpt lat="45.96472" lon="6.05545">
        <ele>637.010742</ele>
        <time>2011-04-16T14:21:14Z</time>
      </trkpt>
      <trkpt lat="45.96475" lon="6.05555">
        <ele>638.452881</ele>
        <time>2011-04-16T14:21:21Z</time>
      </trkpt>
      <trkpt lat="45.96474" lon="6.05562">
        <ele>639.414063</ele>
        <time>2011-04-16T14:21:32Z</time>
      </trkpt>
      <trkpt lat="45.96472" lon="6.05572">
        <ele>640.855957</ele>
        <time>2011-04-16T14:21:40Z</time>
      </trkpt>
      <trkpt lat="45.96471" lon="6.0558">
        <ele>643.259277</ele>
        <time>2011-04-16T14:21:47Z</time>
      </trkpt>
      <trkpt lat="45.96469" lon="6.05587">
        <ele>645.181885</ele>
        <time>2011-04-16T14:21:53Z</time>
      </trkpt>
      <trkpt lat="45.96473" lon="6.05597">
        <ele>646.143311</ele>
        <time>2011-04-16T14:21:59Z</time>
      </trkpt>
      <trkpt lat="45.96472" lon="6.05606">
        <ele>648.546387</ele>
        <time>2011-04-16T14:22:07Z</time>
      </trkpt>
      <trkpt lat="45.96474" lon="6.05613">
        <ele>651.911133</ele>
        <time>2011-04-16T14:22:17Z</time>
      </trkpt>
      <trkpt lat="45.96473" lon="6.05619">
        <ele>653.833984</ele>
        <time>2011-04-16T14:22:23Z</time>
      </trkpt>
      <trkpt lat="45.96474" lon="6.05626">
        <ele>655.275879</ele>
        <time>2011-04-16T14:22:30Z</time>
      </trkpt>
      <trkpt lat="45.96471" lon="6.05633">
        <ele>656.717773</ele>
        <time>2011-04-16T14:22:38Z</time>
      </trkpt>
      <trkpt lat="45.9647" lon="6.05633">
        <ele>657.198486</ele>
        <time>2011-04-16T14:22:48Z</time>
      </trkpt>
      <trkpt lat="45.96464" lon="6.05634">
        <ele>658.640381</ele>
        <time>2011-04-16T14:22:56Z</time>
      </trkpt>
      <trkpt lat="45.96459" lon="6.05634">
        <ele>659.601807</ele>
        <time>2011-04-16T14:23:03Z</time>
      </trkpt>
      <trkpt lat="45.96451" lon="6.05632">
        <ele>660.082275</ele>
        <time>2011-04-16T14:23:12Z</time>
      </trkpt>
      <trkpt lat="45.96439" lon="6.05634">
        <ele>661.043701</ele>
        <time>2011-04-16T14:23:22Z</time>
      </trkpt>
      <trkpt lat="45.96431" lon="6.05637">
        <ele>662.966309</ele>
        <time>2011-04-16T14:23:31Z</time>
      </trkpt>
      <trkpt lat="45.96427" lon="6.05644">
        <ele>664.888916</ele>
        <time>2011-04-16T14:23:37Z</time>
      </trkpt>
      <trkpt lat="45.96422" lon="6.05647">
        <ele>666.811523</ele>
        <time>2011-04-16T14:23:42Z</time>
      </trkpt>
      <trkpt lat="45.96418" lon="6.05648">
        <ele>669.215088</ele>
        <time>2011-04-16T14:23:48Z</time>
      </trkpt>
      <trkpt lat="45.96415" lon="6.05643">
        <ele>670.656982</ele>
        <time>2011-04-16T14:23:56Z</time>
      </trkpt>
      <trkpt lat="45.96409" lon="6.05637">
        <ele>671.137695</ele>
        <time>2011-04-16T14:24:04Z</time>
      </trkpt>
      <trkpt lat="45.96405" lon="6.0563">
        <ele>671.618164</ele>
        <time>2011-04-16T14:24:11Z</time>
      </trkpt>
      <trkpt lat="45.964" lon="6.05624">
        <ele>672.098877</ele>
        <time>2011-04-16T14:24:18Z</time>
      </trkpt>
      <trkpt lat="45.96393" lon="6.05618">
        <ele>672.57959</ele>
        <time>2011-04-16T14:24:26Z</time>
      </trkpt>
      <trkpt lat="45.96391" lon="6.05614">
        <ele>672.57959</ele>
        <time>2011-04-16T14:24:32Z</time>
      </trkpt>
      <trkpt lat="45.96386" lon="6.05602">
        <ele>672.098877</ele>
        <time>2011-04-16T14:24:39Z</time>
      </trkpt>
      <trkpt lat="45.96382" lon="6.05599">
        <ele>673.060303</ele>
        <time>2011-04-16T14:24:47Z</time>
      </trkpt>
      <trkpt lat="45.96372" lon="6.05592">
        <ele>673.060303</ele>
        <time>2011-04-16T14:25:40Z</time>
      </trkpt>
      <trkpt lat="45.96366" lon="6.05573">
        <ele>672.57959</ele>
        <time>2011-04-16T14:25:52Z</time>
      </trkpt>
      <trkpt lat="45.96361" lon="6.05561">
        <ele>673.060303</ele>
        <time>2011-04-16T14:26:00Z</time>
      </trkpt>
      <trkpt lat="45.96355" lon="6.05543">
        <ele>674.021484</ele>
        <time>2011-04-16T14:26:10Z</time>
      </trkpt>
      <trkpt lat="45.96349" lon="6.05525">
        <ele>674.021484</ele>
        <time>2011-04-16T14:26:21Z</time>
      </trkpt>
      <trkpt lat="45.9634" lon="6.05508">
        <ele>674.502197</ele>
        <time>2011-04-16T14:26:33Z</time>
      </trkpt>
      <trkpt lat="45.96332" lon="6.05496">
        <ele>675.463379</ele>
        <time>2011-04-16T14:26:43Z</time>
      </trkpt>
      <trkpt lat="45.96318" lon="6.05485">
        <ele>676.424805</ele>
        <time>2011-04-16T14:26:55Z</time>
      </trkpt>
      <trkpt lat="45.96304" lon="6.05479">
        <ele>677.38623</ele>
        <time>2011-04-16T14:27:06Z</time>
      </trkpt>
      <trkpt lat="45.96298" lon="6.05474">
        <ele>677.866699</ele>
        <time>2011-04-16T14:27:13Z</time>
      </trkpt>
      <trkpt lat="45.96294" lon="6.0547">
        <ele>678.828125</ele>
        <time>2011-04-16T14:27:19Z</time>
      </trkpt>
      <trkpt lat="45.96285" lon="6.05462">
        <ele>679.789307</ele>
        <time>2011-04-16T14:27:27Z</time>
      </trkpt>
      <trkpt lat="45.96279" lon="6.05458">
        <ele>681.231445</ele>
        <time>2011-04-16T14:27:33Z</time>
      </trkpt>
      <trkpt lat="45.96268" lon="6.05454">
        <ele>681.711914</ele>
        <time>2011-04-16T14:27:42Z</time>
      </trkpt>
      <trkpt lat="45.96259" lon="6.05451">
        <ele>683.153809</ele>
        <time>2011-04-16T14:27:50Z</time>
      </trkpt>
      <trkpt lat="45.96253" lon="6.05448">
        <ele>684.115479</ele>
        <time>2011-04-16T14:27:57Z</time>
      </trkpt>
      <trkpt lat="45.96242" lon="6.05446">
        <ele>685.557373</ele>
        <time>2011-04-16T14:28:05Z</time>
      </trkpt>
      <trkpt lat="45.96228" lon="6.05444">
        <ele>687.47998</ele>
        <time>2011-04-16T14:28:15Z</time>
      </trkpt>
      <trkpt lat="45.96219" lon="6.05441">
        <ele>689.402588</ele>
        <time>2011-04-16T14:28:22Z</time>
      </trkpt>
      <trkpt lat="45.96212" lon="6.05439">
        <ele>689.883301</ele>
        <time>2011-04-16T14:28:28Z</time>
      </trkpt>
      <trkpt lat="45.96203" lon="6.05435">
        <ele>690.844482</ele>
        <time>2011-04-16T14:28:37Z</time>
      </trkpt>
      <trkpt lat="45.96195" lon="6.05434">
        <ele>691.805908</ele>
        <time>2011-04-16T14:28:43Z</time>
      </trkpt>
      <trkpt lat="45.96191" lon="6.05435">
        <ele>691.805908</ele>
        <time>2011-04-16T14:28:45Z</time>
      </trkpt>
      <trkpt lat="45.96179" lon="6.05432">
        <ele>692.286621</ele>
        <time>2011-04-16T14:28:53Z</time>
      </trkpt>
      <trkpt lat="45.96172" lon="6.05429">
        <ele>692.286621</ele>
        <time>2011-04-16T14:29:01Z</time>
      </trkpt>
      <trkpt lat="45.96161" lon="6.05428">
        <ele>692.286621</ele>
        <time>2011-04-16T14:29:10Z</time>
      </trkpt>
      <trkpt lat="45.96149" lon="6.05423">
        <ele>692.286621</ele>
        <time>2011-04-16T14:29:18Z</time>
      </trkpt>
      <trkpt lat="45.96144" lon="6.05419">
        <ele>692.286621</ele>
        <time>2011-04-16T14:29:24Z</time>
      </trkpt>
      <trkpt lat="45.96141" lon="6.05416">
        <ele>692.286621</ele>
        <time>2011-04-16T14:29:29Z</time>
      </trkpt>
      <trkpt lat="45.96138" lon="6.05409">
        <ele>691.805908</ele>
        <time>2011-04-16T14:29:35Z</time>
      </trkpt>
      <trkpt lat="45.96134" lon="6.05398">
        <ele>691.805908</ele>
        <time>2011-04-16T14:29:44Z</time>
      </trkpt>
      <trkpt lat="45.96137" lon="6.05389">
        <ele>691.325195</ele>
        <time>2011-04-16T14:29:49Z</time>
      </trkpt>
      <trkpt lat="45.96138" lon="6.05379">
        <ele>691.805908</ele>
        <time>2011-04-16T14:29:55Z</time>
      </trkpt>
      <trkpt lat="45.96139" lon="6.05367">
        <ele>691.805908</ele>
        <time>2011-04-16T14:30:00Z</time>
      </trkpt>
      <trkpt lat="45.96145" lon="6.0535">
        <ele>692.286621</ele>
        <time>2011-04-16T14:30:08Z</time>
      </trkpt>
      <trkpt lat="45.96149" lon="6.05345">
        <ele>691.805908</ele>
        <time>2011-04-16T14:30:14Z</time>
      </trkpt>
      <trkpt lat="45.96154" lon="6.05339">
        <ele>691.805908</ele>
        <time>2011-04-16T14:30:19Z</time>
      </trkpt>
      <trkpt lat="45.96166" lon="6.05334">
        <ele>690.844482</ele>
        <time>2011-04-16T14:30:27Z</time>
      </trkpt>
      <trkpt lat="45.9617" lon="6.05326">
        <ele>690.364014</ele>
        <time>2011-04-16T14:30:33Z</time>
      </trkpt>
      <trkpt lat="45.96171" lon="6.05322">
        <ele>690.844482</ele>
        <time>2011-04-16T14:30:37Z</time>
      </trkpt>
      <trkpt lat="45.96172" lon="6.05313">
        <ele>690.844482</ele>
        <time>2011-04-16T14:30:44Z</time>
      </trkpt>
      <trkpt lat="45.96175" lon="6.053">
        <ele>691.325195</ele>
        <time>2011-04-16T14:30:52Z</time>
      </trkpt>
      <trkpt lat="45.96176" lon="6.05288">
        <ele>691.325195</ele>
        <time>2011-04-16T14:30:58Z</time>
      </trkpt>
      <trkpt lat="45.96174" lon="6.05271">
        <ele>692.767334</ele>
        <time>2011-04-16T14:31:07Z</time>
      </trkpt>
      <trkpt lat="45.96173" lon="6.05264">
        <ele>693.728516</ele>
        <time>2011-04-16T14:31:12Z</time>
      </trkpt>
      <trkpt lat="45.96171" lon="6.05253">
        <ele>695.651123</ele>
        <time>2011-04-16T14:31:18Z</time>
      </trkpt>
      <trkpt lat="45.96164" lon="6.05242">
        <ele>698.054443</ele>
        <time>2011-04-16T14:31:26Z</time>
      </trkpt>
      <trkpt lat="45.96164" lon="6.0523">
        <ele>699.977051</ele>
        <time>2011-04-16T14:31:34Z</time>
      </trkpt>
      <trkpt lat="45.96164" lon="6.05221">
        <ele>700.938477</ele>
        <time>2011-04-16T14:31:40Z</time>
      </trkpt>
      <trkpt lat="45.96166" lon="6.05214">
        <ele>700.938477</ele>
        <time>2011-04-16T14:31:45Z</time>
      </trkpt>
      <trkpt lat="45.96167" lon="6.052">
        <ele>702.861084</ele>
        <time>2011-04-16T14:31:52Z</time>
      </trkpt>
      <trkpt lat="45.96165" lon="6.0519">
        <ele>704.783691</ele>
        <time>2011-04-16T14:31:59Z</time>
      </trkpt>
      <trkpt lat="45.96165" lon="6.05181">
        <ele>705.745117</ele>
        <time>2011-04-16T14:32:05Z</time>
      </trkpt>
      <trkpt lat="45.96164" lon="6.05168">
        <ele>707.667725</ele>
        <time>2011-04-16T14:32:13Z</time>
      </trkpt>
      <trkpt lat="45.96163" lon="6.05162">
        <ele>707.667725</ele>
        <time>2011-04-16T14:32:17Z</time>
      </trkpt>
      <trkpt lat="45.96162" lon="6.0515">
        <ele>708.148438</ele>
        <time>2011-04-16T14:32:24Z</time>
      </trkpt>
      <trkpt lat="45.9616" lon="6.0514">
        <ele>709.109619</ele>
        <time>2011-04-16T14:32:30Z</time>
      </trkpt>
      <trkpt lat="45.96158" lon="6.05134">
        <ele>710.070801</ele>
        <time>2011-04-16T14:32:35Z</time>
      </trkpt>
      <trkpt lat="45.96153" lon="6.05127">
        <ele>712.474121</ele>
        <time>2011-04-16T14:32:43Z</time>
      </trkpt>
      <trkpt lat="45.96147" lon="6.05121">
        <ele>714.396729</ele>
        <time>2011-04-16T14:32:49Z</time>
      </trkpt>
      <trkpt lat="45.96144" lon="6.05111">
        <ele>715.358154</ele>
        <time>2011-04-16T14:32:56Z</time>
      </trkpt>
      <trkpt lat="45.96141" lon="6.05107">
        <ele>717.281006</ele>
        <time>2011-04-16T14:33:00Z</time>
      </trkpt>
      <trkpt lat="45.96136" lon="6.05102">
        <ele>718.242188</ele>
        <time>2011-04-16T14:33:06Z</time>
      </trkpt>
      <trkpt lat="45.96132" lon="6.05096">
        <ele>720.645508</ele>
        <time>2011-04-16T14:33:13Z</time>
      </trkpt>
      <trkpt lat="45.96132" lon="6.05094">
        <ele>721.606689</ele>
        <time>2011-04-16T14:33:15Z</time>
      </trkpt>
      <trkpt lat="45.96132" lon="6.05091">
        <ele>722.568115</ele>
        <time>2011-04-16T14:33:17Z</time>
      </trkpt>
      <trkpt lat="45.96127" lon="6.05084">
        <ele>724.490723</ele>
        <time>2011-04-16T14:33:24Z</time>
      </trkpt>
      <trkpt lat="45.96121" lon="6.05077">
        <ele>727.374756</ele>
        <time>2011-04-16T14:33:32Z</time>
      </trkpt>
      <trkpt lat="45.96114" lon="6.05069">
        <ele>729.777832</ele>
        <time>2011-04-16T14:33:40Z</time>
      </trkpt>
      <trkpt lat="45.96107" lon="6.0506">
        <ele>731.700439</ele>
        <time>2011-04-16T14:33:49Z</time>
      </trkpt>
      <trkpt lat="45.96098" lon="6.05054">
        <ele>732.181396</ele>
        <time>2011-04-16T14:33:57Z</time>
      </trkpt>
      <trkpt lat="45.96095" lon="6.05052">
        <ele>732.181396</ele>
        <time>2011-04-16T14:34:05Z</time>
      </trkpt>
      <trkpt lat="45.96096" lon="6.05045">
        <ele>733.142578</ele>
        <time>2011-04-16T14:35:25Z</time>
      </trkpt>
      <trkpt lat="45.96089" lon="6.05034">
        <ele>732.181396</ele>
        <time>2011-04-16T14:35:36Z</time>
      </trkpt>
      <trkpt lat="45.96085" lon="6.05026">
        <ele>732.181396</ele>
        <time>2011-04-16T14:35:43Z</time>
      </trkpt>
      <trkpt lat="45.96079" lon="6.0502">
        <ele>733.142578</ele>
        <time>2011-04-16T14:35:50Z</time>
      </trkpt>
      <trkpt lat="45.96074" lon="6.05015">
        <ele>732.662109</ele>
        <time>2011-04-16T14:35:56Z</time>
      </trkpt>
      <trkpt lat="45.96069" lon="6.05003">
        <ele>732.181396</ele>
        <time>2011-04-16T14:36:03Z</time>
      </trkpt>
      <trkpt lat="45.96066" lon="6.04996">
        <ele>732.181396</ele>
        <time>2011-04-16T14:36:08Z</time>
      </trkpt>
      <trkpt lat="45.96064" lon="6.04989">
        <ele>733.142578</ele>
        <time>2011-04-16T14:36:13Z</time>
      </trkpt>
      <trkpt lat="45.96059" lon="6.04979">
        <ele>733.142578</ele>
        <time>2011-04-16T14:36:22Z</time>
      </trkpt>
      <trkpt lat="45.96055" lon="6.04966">
        <ele>732.662109</ele>
        <time>2011-04-16T14:36:31Z</time>
      </trkpt>
      <trkpt lat="45.96059" lon="6.04955">
        <ele>730.258545</ele>
        <time>2011-04-16T14:36:38Z</time>
      </trkpt>
      <trkpt lat="45.96061" lon="6.04948">
        <ele>729.297119</ele>
        <time>2011-04-16T14:36:43Z</time>
      </trkpt>
      <trkpt lat="45.96062" lon="6.0494">
        <ele>727.855225</ele>
        <time>2011-04-16T14:36:47Z</time>
      </trkpt>
      <trkpt lat="45.96062" lon="6.04937">
        <ele>727.374756</ele>
        <time>2011-04-16T14:36:49Z</time>
      </trkpt>
      <trkpt lat="45.96062" lon="6.04925">
        <ele>724.01001</ele>
        <time>2011-04-16T14:36:57Z</time>
      </trkpt>
      <trkpt lat="45.96063" lon="6.04923">
        <ele>724.01001</ele>
        <time>2011-04-16T14:36:58Z</time>
      </trkpt>
      <trkpt lat="45.96064" lon="6.04907">
        <ele>723.529541</ele>
        <time>2011-04-16T14:37:06Z</time>
      </trkpt>
      <trkpt lat="45.96065" lon="6.04895">
        <ele>724.01001</ele>
        <time>2011-04-16T14:37:13Z</time>
      </trkpt>
      <trkpt lat="45.96064" lon="6.04883">
        <ele>723.529541</ele>
        <time>2011-04-16T14:37:20Z</time>
      </trkpt>
      <trkpt lat="45.96064" lon="6.04878">
        <ele>724.01001</ele>
        <time>2011-04-16T14:37:23Z</time>
      </trkpt>
      <trkpt lat="45.96058" lon="6.04863">
        <ele>723.529541</ele>
        <time>2011-04-16T14:37:29Z</time>
      </trkpt>
      <trkpt lat="45.96057" lon="6.0486">
        <ele>724.01001</ele>
        <time>2011-04-16T14:37:31Z</time>
      </trkpt>
      <trkpt lat="45.96052" lon="6.04851">
        <ele>724.01001</ele>
        <time>2011-04-16T14:37:39Z</time>
      </trkpt>
      <trkpt lat="45.96046" lon="6.04839">
        <ele>722.087402</ele>
        <time>2011-04-16T14:37:48Z</time>
      </trkpt>
      <trkpt lat="45.96044" lon="6.04833">
        <ele>720.164795</ele>
        <time>2011-04-16T14:37:53Z</time>
      </trkpt>
      <trkpt lat="45.96041" lon="6.04822">
        <ele>719.203613</ele>
        <time>2011-04-16T14:38:00Z</time>
      </trkpt>
      <trkpt lat="45.96037" lon="6.0481">
        <ele>718.242188</ele>
        <time>2011-04-16T14:38:09Z</time>
      </trkpt>
      <trkpt lat="45.96036" lon="6.04808">
        <ele>717.281006</ele>
        <time>2011-04-16T14:38:11Z</time>
      </trkpt>
      <trkpt lat="45.96031" lon="6.04792">
        <ele>717.761475</ele>
        <time>2011-04-16T14:38:20Z</time>
      </trkpt>
      <trkpt lat="45.96027" lon="6.04781">
        <ele>717.761475</ele>
        <time>2011-04-16T14:38:27Z</time>
      </trkpt>
      <trkpt lat="45.96021" lon="6.04772">
        <ele>716.800293</ele>
        <time>2011-04-16T14:38:35Z</time>
      </trkpt>
      <trkpt lat="45.9602" lon="6.04769">
        <ele>715.358154</ele>
        <time>2011-04-16T14:38:37Z</time>
      </trkpt>
      <trkpt lat="45.96015" lon="6.04764">
        <ele>713.916016</ele>
        <time>2011-04-16T14:38:45Z</time>
      </trkpt>
      <trkpt lat="45.96008" lon="6.0476">
        <ele>711.032227</ele>
        <time>2011-04-16T14:38:53Z</time>
      </trkpt>
      <trkpt lat="45.96006" lon="6.04759">
        <ele>711.032227</ele>
        <time>2011-04-16T14:39:00Z</time>
      </trkpt>
      <trkpt lat="45.96005" lon="6.04755">
        <ele>710.070801</ele>
        <time>2011-04-16T14:39:24Z</time>
      </trkpt>
      <trkpt lat="45.96002" lon="6.04753">
        <ele>710.070801</ele>
        <time>2011-04-16T14:41:27Z</time>
      </trkpt>
      <trkpt lat="45.96005" lon="6.04755">
        <ele>710.551514</ele>
        <time>2011-04-16T14:42:20Z</time>
      </trkpt>
      <trkpt lat="45.96009" lon="6.04756">
        <ele>711.993652</ele>
        <time>2011-04-16T14:42:29Z</time>
      </trkpt>
      <trkpt lat="45.96012" lon="6.04759">
        <ele>714.396729</ele>
        <time>2011-04-16T14:42:37Z</time>
      </trkpt>
      <trkpt lat="45.96018" lon="6.04762">
        <ele>717.281006</ele>
        <time>2011-04-16T14:42:48Z</time>
      </trkpt>
      <trkpt lat="45.96019" lon="6.0477">
        <ele>717.281006</ele>
        <time>2011-04-16T14:42:57Z</time>
      </trkpt>
      <trkpt lat="45.96021" lon="6.04777">
        <ele>716.800293</ele>
        <time>2011-04-16T14:43:05Z</time>
      </trkpt>
      <trkpt lat="45.96026" lon="6.0479">
        <ele>717.281006</ele>
        <time>2011-04-16T14:43:14Z</time>
      </trkpt>
      <trkpt lat="45.9603" lon="6.04797">
        <ele>719.203613</ele>
        <time>2011-04-16T14:43:22Z</time>
      </trkpt>
      <trkpt lat="45.96034" lon="6.04802">
        <ele>719.203613</ele>
        <time>2011-04-16T14:43:27Z</time>
      </trkpt>
      <trkpt lat="45.96037" lon="6.04811">
        <ele>719.684326</ele>
        <time>2011-04-16T14:43:34Z</time>
      </trkpt>
      <trkpt lat="45.9604" lon="6.04821">
        <ele>721.126221</ele>
        <time>2011-04-16T14:43:42Z</time>
      </trkpt>
      <trkpt lat="45.96045" lon="6.04829">
        <ele>723.529541</ele>
        <time>2011-04-16T14:43:50Z</time>
      </trkpt>
      <trkpt lat="45.96049" lon="6.04838">
        <ele>724.490723</ele>
        <time>2011-04-16T14:43:57Z</time>
      </trkpt>
      <trkpt lat="45.96053" lon="6.04848">
        <ele>723.529541</ele>
        <time>2011-04-16T14:44:06Z</time>
      </trkpt>
      <trkpt lat="45.96057" lon="6.04857">
        <ele>724.01001</ele>
        <time>2011-04-16T14:44:12Z</time>
      </trkpt>
      <trkpt lat="45.9606" lon="6.04874">
        <ele>725.451904</ele>
        <time>2011-04-16T14:44:22Z</time>
      </trkpt>
      <trkpt lat="45.96061" lon="6.04886">
        <ele>724.490723</ele>
        <time>2011-04-16T14:44:28Z</time>
      </trkpt>
      <trkpt lat="45.96061" lon="6.04903">
        <ele>724.971436</ele>
        <time>2011-04-16T14:44:37Z</time>
      </trkpt>
      <trkpt lat="45.96058" lon="6.04922">
        <ele>727.374756</ele>
        <time>2011-04-16T14:44:49Z</time>
      </trkpt>
      <trkpt lat="45.96057" lon="6.04929">
        <ele>729.297119</ele>
        <time>2011-04-16T14:44:54Z</time>
      </trkpt>
      <trkpt lat="45.96055" lon="6.0494">
        <ele>730.739258</ele>
        <time>2011-04-16T14:45:03Z</time>
      </trkpt>
      <trkpt lat="45.96054" lon="6.04954">
        <ele>731.700439</ele>
        <time>2011-04-16T14:45:14Z</time>
      </trkpt>
      <trkpt lat="45.96056" lon="6.0496">
        <ele>732.662109</ele>
        <time>2011-04-16T14:45:19Z</time>
      </trkpt>
      <trkpt lat="45.96055" lon="6.04968">
        <ele>733.142578</ele>
        <time>2011-04-16T14:45:25Z</time>
      </trkpt>
      <trkpt lat="45.96053" lon="6.04976">
        <ele>733.142578</ele>
        <time>2011-04-16T14:45:31Z</time>
      </trkpt>
      <trkpt lat="45.96058" lon="6.04987">
        <ele>732.662109</ele>
        <time>2011-04-16T14:45:39Z</time>
      </trkpt>
      <trkpt lat="45.96065" lon="6.04995">
        <ele>733.623291</ele>
        <time>2011-04-16T14:45:50Z</time>
      </trkpt>
      <trkpt lat="45.96072" lon="6.05004">
        <ele>733.623291</ele>
        <time>2011-04-16T14:46:00Z</time>
      </trkpt>
      <trkpt lat="45.96076" lon="6.05014">
        <ele>734.104004</ele>
        <time>2011-04-16T14:46:07Z</time>
      </trkpt>
      <trkpt lat="45.96082" lon="6.05027">
        <ele>734.104004</ele>
        <time>2011-04-16T14:46:19Z</time>
      </trkpt>
      <trkpt lat="45.96086" lon="6.05035">
        <ele>734.104004</ele>
        <time>2011-04-16T14:46:27Z</time>
      </trkpt>
      <trkpt lat="45.96089" lon="6.05044">
        <ele>734.584717</ele>
        <time>2011-04-16T14:46:44Z</time>
      </trkpt>
      <trkpt lat="45.96086" lon="6.0505">
        <ele>735.545898</ele>
        <time>2011-04-16T14:46:53Z</time>
      </trkpt>
      <trkpt lat="45.96084" lon="6.05055">
        <ele>738.429932</ele>
        <time>2011-04-16T14:46:59Z</time>
      </trkpt>
      <trkpt lat="45.96078" lon="6.05058">
        <ele>740.352539</ele>
        <time>2011-04-16T14:47:09Z</time>
      </trkpt>
      <trkpt lat="45.96071" lon="6.0506">
        <ele>743.236328</ele>
        <time>2011-04-16T14:47:19Z</time>
      </trkpt>
      <trkpt lat="45.96066" lon="6.05065">
        <ele>745.639648</ele>
        <time>2011-04-16T14:47:26Z</time>
      </trkpt>
      <trkpt lat="45.96058" lon="6.0507">
        <ele>748.043213</ele>
        <time>2011-04-16T14:47:35Z</time>
      </trkpt>
      <trkpt lat="45.96056" lon="6.05072">
        <ele>749.004395</ele>
        <time>2011-04-16T14:47:37Z</time>
      </trkpt>
      <trkpt lat="45.96047" lon="6.05074">
        <ele>751.888428</ele>
        <time>2011-04-16T14:47:47Z</time>
      </trkpt>
      <trkpt lat="45.96042" lon="6.0508">
        <ele>752.849609</ele>
        <time>2011-04-16T14:47:54Z</time>
      </trkpt>
      <trkpt lat="45.96034" lon="6.05085">
        <ele>755.25293</ele>
        <time>2011-04-16T14:48:04Z</time>
      </trkpt>
      <trkpt lat="45.9603" lon="6.05083">
        <ele>757.65625</ele>
        <time>2011-04-16T14:48:11Z</time>
      </trkpt>
      <trkpt lat="45.96026" lon="6.05079">
        <ele>761.020752</ele>
        <time>2011-04-16T14:48:22Z</time>
      </trkpt>
      <trkpt lat="45.96021" lon="6.05075">
        <ele>762.943359</ele>
        <time>2011-04-16T14:48:29Z</time>
      </trkpt>
      <trkpt lat="45.96017" lon="6.0507">
        <ele>764.866211</ele>
        <time>2011-04-16T14:48:36Z</time>
      </trkpt>
      <trkpt lat="45.96012" lon="6.05064">
        <ele>767.269531</ele>
        <time>2011-04-16T14:48:43Z</time>
      </trkpt>
      <trkpt lat="45.96007" lon="6.05059">
        <ele>770.15332</ele>
        <time>2011-04-16T14:48:50Z</time>
      </trkpt>
      <trkpt lat="45.96001" lon="6.05054">
        <ele>772.556641</ele>
        <time>2011-04-16T14:48:57Z</time>
      </trkpt>
      <trkpt lat="45.95998" lon="6.05053">
        <ele>773.037354</ele>
        <time>2011-04-16T14:48:59Z</time>
      </trkpt>
      <trkpt lat="45.95994" lon="6.05054">
        <ele>774.959961</ele>
        <time>2011-04-16T14:49:04Z</time>
      </trkpt>
      <trkpt lat="45.95988" lon="6.05058">
        <ele>775.921143</ele>
        <time>2011-04-16T14:49:10Z</time>
      </trkpt>
      <trkpt lat="45.95979" lon="6.05059">
        <ele>778.324463</ele>
        <time>2011-04-16T14:49:19Z</time>
      </trkpt>
      <trkpt lat="45.95974" lon="6.05058">
        <ele>781.20874</ele>
        <time>2011-04-16T14:49:27Z</time>
      </trkpt>
      <trkpt lat="45.95965" lon="6.05059">
        <ele>783.131104</ele>
        <time>2011-04-16T14:49:36Z</time>
      </trkpt>
      <trkpt lat="45.95962" lon="6.0506">
        <ele>785.053955</ele>
        <time>2011-04-16T14:49:41Z</time>
      </trkpt>
      <trkpt lat="45.95954" lon="6.05059">
        <ele>787.937744</ele>
        <time>2011-04-16T14:49:51Z</time>
      </trkpt>
      <trkpt lat="45.95948" lon="6.0506">
        <ele>789.379639</ele>
        <time>2011-04-16T14:49:58Z</time>
      </trkpt>
      <trkpt lat="45.9594" lon="6.05059">
        <ele>792.263672</ele>
        <time>2011-04-16T14:50:06Z</time>
      </trkpt>
      <trkpt lat="45.95932" lon="6.05059">
        <ele>795.147461</ele>
        <time>2011-04-16T14:50:15Z</time>
      </trkpt>
      <trkpt lat="45.95926" lon="6.0506">
        <ele>798.031738</ele>
        <time>2011-04-16T14:50:23Z</time>
      </trkpt>
      <trkpt lat="45.95918" lon="6.0506">
        <ele>799.954346</ele>
        <time>2011-04-16T14:50:32Z</time>
      </trkpt>
      <trkpt lat="45.95911" lon="6.05059">
        <ele>803.318848</ele>
        <time>2011-04-16T14:50:40Z</time>
      </trkpt>
      <trkpt lat="45.95909" lon="6.05059">
        <ele>804.760742</ele>
        <time>2011-04-16T14:50:43Z</time>
      </trkpt>
      <trkpt lat="45.95905" lon="6.05058">
        <ele>806.202637</ele>
        <time>2011-04-16T14:50:49Z</time>
      </trkpt>
      <trkpt lat="45.959" lon="6.05057">
        <ele>808.605957</ele>
        <time>2011-04-16T14:50:57Z</time>
      </trkpt>
      <trkpt lat="45.9589" lon="6.05058">
        <ele>811.009277</ele>
        <time>2011-04-16T14:51:07Z</time>
      </trkpt>
      <trkpt lat="45.95883" lon="6.05054">
        <ele>812.932129</ele>
        <time>2011-04-16T14:51:15Z</time>
      </trkpt>
      <trkpt lat="45.95879" lon="6.05054">
        <ele>814.854736</ele>
        <time>2011-04-16T14:51:23Z</time>
      </trkpt>
      <trkpt lat="45.95878" lon="6.05059">
        <ele>816.296631</ele>
        <time>2011-04-16T14:51:29Z</time>
      </trkpt>
      <trkpt lat="45.95877" lon="6.05064">
        <ele>817.258057</ele>
        <time>2011-04-16T14:51:37Z</time>
      </trkpt>
      <trkpt lat="45.95876" lon="6.05069">
        <ele>820.622559</ele>
        <time>2011-04-16T14:51:47Z</time>
      </trkpt>
      <trkpt lat="45.95869" lon="6.05075">
        <ele>821.103271</ele>
        <time>2011-04-16T14:52:31Z</time>
      </trkpt>
      <trkpt lat="45.95868" lon="6.05073">
        <ele>822.064453</ele>
        <time>2011-04-16T14:57:26Z</time>
      </trkpt>
      <trkpt lat="45.95866" lon="6.0507">
        <ele>823.506592</ele>
        <time>2011-04-16T14:57:34Z</time>
      </trkpt>
      <trkpt lat="45.95863" lon="6.05068">
        <ele>825.909668</ele>
        <time>2011-04-16T14:57:42Z</time>
      </trkpt>
      <trkpt lat="45.9586" lon="6.05065">
        <ele>826.871094</ele>
        <time>2011-04-16T14:57:49Z</time>
      </trkpt>
      <trkpt lat="45.95854" lon="6.05067">
        <ele>827.832275</ele>
        <time>2011-04-16T14:57:57Z</time>
      </trkpt>
      <trkpt lat="45.95848" lon="6.05071">
        <ele>830.716553</ele>
        <time>2011-04-16T14:58:08Z</time>
      </trkpt>
      <trkpt lat="45.95842" lon="6.05079">
        <ele>832.63916</ele>
        <time>2011-04-16T14:58:18Z</time>
      </trkpt>
      <trkpt lat="45.95838" lon="6.05085">
        <ele>834.081055</ele>
        <time>2011-04-16T14:58:27Z</time>
      </trkpt>
      <trkpt lat="45.95834" lon="6.05095">
        <ele>835.522949</ele>
        <time>2011-04-16T14:58:37Z</time>
      </trkpt>
      <trkpt lat="45.9583" lon="6.05094">
        <ele>836.964844</ele>
        <time>2011-04-16T14:58:46Z</time>
      </trkpt>
      <trkpt lat="45.95826" lon="6.05094">
        <ele>839.368164</ele>
        <time>2011-04-16T14:58:55Z</time>
      </trkpt>
      <trkpt lat="45.9582" lon="6.05095">
        <ele>841.771484</ele>
        <time>2011-04-16T14:59:05Z</time>
      </trkpt>
      <trkpt lat="45.95817" lon="6.05095">
        <ele>843.694092</ele>
        <time>2011-04-16T14:59:12Z</time>
      </trkpt>
      <trkpt lat="45.95808" lon="6.05096">
        <ele>846.578369</ele>
        <time>2011-04-16T14:59:23Z</time>
      </trkpt>
      <trkpt lat="45.95801" lon="6.05098">
        <ele>848.020264</ele>
        <time>2011-04-16T14:59:33Z</time>
      </trkpt>
      <trkpt lat="45.95793" lon="6.05102">
        <ele>849.462158</ele>
        <time>2011-04-16T14:59:42Z</time>
      </trkpt>
      <trkpt lat="45.95785" lon="6.05109">
        <ele>850.423584</ele>
        <time>2011-04-16T14:59:53Z</time>
      </trkpt>
      <trkpt lat="45.95777" lon="6.05114">
        <ele>851.865479</ele>
        <time>2011-04-16T15:00:04Z</time>
      </trkpt>
      <trkpt lat="45.95772" lon="6.05123">
        <ele>852.345947</ele>
        <time>2011-04-16T15:00:12Z</time>
      </trkpt>
      <trkpt lat="45.95768" lon="6.0513">
        <ele>852.345947</ele>
        <time>2011-04-16T15:00:19Z</time>
      </trkpt>
      <trkpt lat="45.95763" lon="6.0514">
        <ele>852.82666</ele>
        <time>2011-04-16T15:00:28Z</time>
      </trkpt>
      <trkpt lat="45.95759" lon="6.05147">
        <ele>852.82666</ele>
        <time>2011-04-16T15:00:35Z</time>
      </trkpt>
      <trkpt lat="45.95756" lon="6.05154">
        <ele>853.307373</ele>
        <time>2011-04-16T15:00:42Z</time>
      </trkpt>
      <trkpt lat="45.95754" lon="6.05163">
        <ele>853.307373</ele>
        <time>2011-04-16T15:00:47Z</time>
      </trkpt>
      <trkpt lat="45.95749" lon="6.05174">
        <ele>852.345947</ele>
        <time>2011-04-16T15:00:55Z</time>
      </trkpt>
      <trkpt lat="45.95741" lon="6.05185">
        <ele>852.345947</ele>
        <time>2011-04-16T15:01:04Z</time>
      </trkpt>
      <trkpt lat="45.95734" lon="6.05191">
        <ele>855.710693</ele>
        <time>2011-04-16T15:01:13Z</time>
      </trkpt>
      <trkpt lat="45.95728" lon="6.05198">
        <ele>858.114014</ele>
        <time>2011-04-16T15:01:22Z</time>
      </trkpt>
      <trkpt lat="45.95726" lon="6.052">
        <ele>858.594482</ele>
        <time>2011-04-16T15:01:25Z</time>
      </trkpt>
      <trkpt lat="45.95717" lon="6.05211">
        <ele>859.555908</ele>
        <time>2011-04-16T15:01:35Z</time>
      </trkpt>
      <trkpt lat="45.95712" lon="6.05219">
        <ele>861.47876</ele>
        <time>2011-04-16T15:01:43Z</time>
      </trkpt>
      <trkpt lat="45.95708" lon="6.05228">
        <ele>863.401367</ele>
        <time>2011-04-16T15:01:52Z</time>
      </trkpt>
      <trkpt lat="45.95704" lon="6.05241">
        <ele>864.843262</ele>
        <time>2011-04-16T15:02:02Z</time>
      </trkpt>
      <trkpt lat="45.95702" lon="6.05252">
        <ele>864.362549</ele>
        <time>2011-04-16T15:02:10Z</time>
      </trkpt>
      <trkpt lat="45.957" lon="6.05268">
        <ele>863.401367</ele>
        <time>2011-04-16T15:02:19Z</time>
      </trkpt>
      <trkpt lat="45.95694" lon="6.05275">
        <ele>862.920654</ele>
        <time>2011-04-16T15:02:28Z</time>
      </trkpt>
      <trkpt lat="45.95685" lon="6.05282">
        <ele>860.998047</ele>
        <time>2011-04-16T15:02:36Z</time>
      </trkpt>
      <trkpt lat="45.95674" lon="6.05289">
        <ele>860.517334</ele>
        <time>2011-04-16T15:02:45Z</time>
      </trkpt>
      <trkpt lat="45.95669" lon="6.05296">
        <ele>860.517334</ele>
        <time>2011-04-16T15:02:52Z</time>
      </trkpt>
      <trkpt lat="45.95661" lon="6.05304">
        <ele>860.517334</ele>
        <time>2011-04-16T15:02:59Z</time>
      </trkpt>
      <trkpt lat="45.95649" lon="6.05314">
        <ele>862.439941</ele>
        <time>2011-04-16T15:03:07Z</time>
      </trkpt>
      <trkpt lat="45.95641" lon="6.05323">
        <ele>863.881836</ele>
        <time>2011-04-16T15:03:15Z</time>
      </trkpt>
      <trkpt lat="45.95634" lon="6.05333">
        <ele>862.920654</ele>
        <time>2011-04-16T15:03:23Z</time>
      </trkpt>
      <trkpt lat="45.95629" lon="6.0534">
        <ele>864.362549</ele>
        <time>2011-04-16T15:03:29Z</time>
      </trkpt>
      <trkpt lat="45.95623" lon="6.05347">
        <ele>865.323975</ele>
        <time>2011-04-16T15:03:35Z</time>
      </trkpt>
      <trkpt lat="45.95617" lon="6.05354">
        <ele>866.765869</ele>
        <time>2011-04-16T15:03:42Z</time>
      </trkpt>
      <trkpt lat="45.95613" lon="6.05361">
        <ele>869.649902</ele>
        <time>2011-04-16T15:03:50Z</time>
      </trkpt>
      <trkpt lat="45.95607" lon="6.0537">
        <ele>872.052979</ele>
        <time>2011-04-16T15:03:59Z</time>
      </trkpt>
      <trkpt lat="45.95602" lon="6.05377">
        <ele>873.495117</ele>
        <time>2011-04-16T15:04:06Z</time>
      </trkpt>
      <trkpt lat="45.95596" lon="6.05385">
        <ele>874.937012</ele>
        <time>2011-04-16T15:04:14Z</time>
      </trkpt>
      <trkpt lat="45.95592" lon="6.05395">
        <ele>876.859863</ele>
        <time>2011-04-16T15:04:23Z</time>
      </trkpt>
      <trkpt lat="45.95588" lon="6.05405">
        <ele>876.859863</ele>
        <time>2011-04-16T15:04:30Z</time>
      </trkpt>
      <trkpt lat="45.95585" lon="6.05409">
        <ele>876.859863</ele>
        <time>2011-04-16T15:04:33Z</time>
      </trkpt>
      <trkpt lat="45.95583" lon="6.05412">
        <ele>876.859863</ele>
        <time>2011-04-16T15:04:35Z</time>
      </trkpt>
      <trkpt lat="45.95576" lon="6.05424">
        <ele>875.898193</ele>
        <time>2011-04-16T15:04:45Z</time>
      </trkpt>
      <trkpt lat="45.95572" lon="6.05434">
        <ele>876.37915</ele>
        <time>2011-04-16T15:04:52Z</time>
      </trkpt>
      <trkpt lat="45.95571" lon="6.0545">
        <ele>874.937012</ele>
        <time>2011-04-16T15:05:02Z</time>
      </trkpt>
      <trkpt lat="45.95567" lon="6.05462">
        <ele>874.937012</ele>
        <time>2011-04-16T15:05:10Z</time>
      </trkpt>
      <trkpt lat="45.95565" lon="6.05476">
        <ele>874.937012</ele>
        <time>2011-04-16T15:05:18Z</time>
      </trkpt>
      <trkpt lat="45.95564" lon="6.05487">
        <ele>873.975586</ele>
        <time>2011-04-16T15:05:25Z</time>
      </trkpt>
      <trkpt lat="45.95562" lon="6.05504">
        <ele>873.014404</ele>
        <time>2011-04-16T15:05:34Z</time>
      </trkpt>
      <trkpt lat="45.95558" lon="6.05519">
        <ele>872.052979</ele>
        <time>2011-04-16T15:05:42Z</time>
      </trkpt>
      <trkpt lat="45.95558" lon="6.05523">
        <ele>871.572266</ele>
        <time>2011-04-16T15:05:44Z</time>
      </trkpt>
      <trkpt lat="45.95554" lon="6.05532">
        <ele>871.572266</ele>
        <time>2011-04-16T15:05:50Z</time>
      </trkpt>
      <trkpt lat="45.95547" lon="6.05532">
        <ele>873.975586</ele>
        <time>2011-04-16T15:05:58Z</time>
      </trkpt>
      <trkpt lat="45.95544" lon="6.05531">
        <ele>874.937012</ele>
        <time>2011-04-16T15:06:01Z</time>
      </trkpt>
      <trkpt lat="45.95538" lon="6.05532">
        <ele>875.898193</ele>
        <time>2011-04-16T15:06:08Z</time>
      </trkpt>
      <trkpt lat="45.95527" lon="6.05538">
        <ele>878.782471</ele>
        <time>2011-04-16T15:06:20Z</time>
      </trkpt>
      <trkpt lat="45.95518" lon="6.05546">
        <ele>881.66626</ele>
        <time>2011-04-16T15:06:30Z</time>
      </trkpt>
      <trkpt lat="45.95509" lon="6.05553">
        <ele>883.588867</ele>
        <time>2011-04-16T15:06:40Z</time>
      </trkpt>
      <trkpt lat="45.95503" lon="6.05558">
        <ele>884.06958</ele>
        <time>2011-04-16T15:06:48Z</time>
      </trkpt>
      <trkpt lat="45.95497" lon="6.05564">
        <ele>884.06958</ele>
        <time>2011-04-16T15:06:55Z</time>
      </trkpt>
      <trkpt lat="45.95485" lon="6.0556">
        <ele>884.550293</ele>
        <time>2011-04-16T15:07:04Z</time>
      </trkpt>
      <trkpt lat="45.9548" lon="6.05557">
        <ele>885.031006</ele>
        <time>2011-04-16T15:07:09Z</time>
      </trkpt>
      <trkpt lat="45.95475" lon="6.05558">
        <ele>886.4729</ele>
        <time>2011-04-16T15:07:15Z</time>
      </trkpt>
      <trkpt lat="45.9547" lon="6.05562">
        <ele>886.953369</ele>
        <time>2011-04-16T15:07:21Z</time>
      </trkpt>
      <trkpt lat="45.95466" lon="6.05566">
        <ele>887.914795</ele>
        <time>2011-04-16T15:07:25Z</time>
      </trkpt>
      <trkpt lat="45.95464" lon="6.0557">
        <ele>889.837402</ele>
        <time>2011-04-16T15:07:29Z</time>
      </trkpt>
      <trkpt lat="45.95459" lon="6.0558">
        <ele>892.240967</ele>
        <time>2011-04-16T15:07:38Z</time>
      </trkpt>
      <trkpt lat="45.95458" lon="6.05587">
        <ele>892.72168</ele>
        <time>2011-04-16T15:07:45Z</time>
      </trkpt>
      <trkpt lat="45.95456" lon="6.05594">
        <ele>891.76001</ele>
        <time>2011-04-16T15:07:52Z</time>
      </trkpt>
      <trkpt lat="45.95449" lon="6.05607">
        <ele>893.202148</ele>
        <time>2011-04-16T15:08:01Z</time>
      </trkpt>
      <trkpt lat="45.95441" lon="6.05617">
        <ele>893.682861</ele>
        <time>2011-04-16T15:08:09Z</time>
      </trkpt>
      <trkpt lat="45.95435" lon="6.05628">
        <ele>894.644043</ele>
        <time>2011-04-16T15:08:18Z</time>
      </trkpt>
      <trkpt lat="45.95433" lon="6.05631">
        <ele>895.124756</ele>
        <time>2011-04-16T15:08:21Z</time>
      </trkpt>
      <trkpt lat="45.95421" lon="6.05637">
        <ele>896.566895</ele>
        <time>2011-04-16T15:08:30Z</time>
      </trkpt>
      <trkpt lat="45.95414" lon="6.05639">
        <ele>897.047363</ele>
        <time>2011-04-16T15:08:37Z</time>
      </trkpt>
      <trkpt lat="45.95408" lon="6.05644">
        <ele>898.489258</ele>
        <time>2011-04-16T15:08:42Z</time>
      </trkpt>
      <trkpt lat="45.95403" lon="6.05654">
        <ele>899.450684</ele>
        <time>2011-04-16T15:08:50Z</time>
      </trkpt>
      <trkpt lat="45.95399" lon="6.05658">
        <ele>899.931396</ele>
        <time>2011-04-16T15:08:56Z</time>
      </trkpt>
      <trkpt lat="45.95391" lon="6.05666">
        <ele>898.489258</ele>
        <time>2011-04-16T15:09:04Z</time>
      </trkpt>
      <trkpt lat="45.95383" lon="6.05677">
        <ele>898.008789</ele>
        <time>2011-04-16T15:09:13Z</time>
      </trkpt>
      <trkpt lat="45.95376" lon="6.05689">
        <ele>898.489258</ele>
        <time>2011-04-16T15:09:22Z</time>
      </trkpt>
      <trkpt lat="45.95372" lon="6.05697">
        <ele>898.489258</ele>
        <time>2011-04-16T15:09:28Z</time>
      </trkpt>
      <trkpt lat="45.95365" lon="6.05705">
        <ele>896.566895</ele>
        <time>2011-04-16T15:09:36Z</time>
      </trkpt>
      <trkpt lat="45.95359" lon="6.05715">
        <ele>898.008789</ele>
        <time>2011-04-16T15:09:44Z</time>
      </trkpt>
      <trkpt lat="45.95354" lon="6.05725">
        <ele>897.047363</ele>
        <time>2011-04-16T15:09:51Z</time>
      </trkpt>
      <trkpt lat="45.95349" lon="6.05738">
        <ele>895.124756</ele>
        <time>2011-04-16T15:10:01Z</time>
      </trkpt>
      <trkpt lat="45.95342" lon="6.05743">
        <ele>895.124756</ele>
        <time>2011-04-16T15:10:07Z</time>
      </trkpt>
      <trkpt lat="45.95336" lon="6.05744">
        <ele>897.528076</ele>
        <time>2011-04-16T15:10:13Z</time>
      </trkpt>
      <trkpt lat="45.9533" lon="6.05744">
        <ele>899.450684</ele>
        <time>2011-04-16T15:10:19Z</time>
      </trkpt>
      <trkpt lat="45.95323" lon="6.05747">
        <ele>902.334473</ele>
        <time>2011-04-16T15:10:29Z</time>
      </trkpt>
      <trkpt lat="45.95316" lon="6.05752">
        <ele>903.295898</ele>
        <time>2011-04-16T15:10:36Z</time>
      </trkpt>
      <trkpt lat="45.95309" lon="6.05757">
        <ele>905.218506</ele>
        <time>2011-04-16T15:10:44Z</time>
      </trkpt>
      <trkpt lat="45.95303" lon="6.05764">
        <ele>906.179688</ele>
        <time>2011-04-16T15:10:51Z</time>
      </trkpt>
      <trkpt lat="45.95304" lon="6.05771">
        <ele>906.179688</ele>
        <time>2011-04-16T15:10:59Z</time>
      </trkpt>
      <trkpt lat="45.95298" lon="6.05776">
        <ele>905.218506</ele>
        <time>2011-04-16T15:14:52Z</time>
      </trkpt>
      <trkpt lat="45.95298" lon="6.05778">
        <ele>905.218506</ele>
        <time>2011-04-16T15:14:54Z</time>
      </trkpt>
      <trkpt lat="45.95298" lon="6.05786">
        <ele>903.776611</ele>
        <time>2011-04-16T15:15:04Z</time>
      </trkpt>
      <trkpt lat="45.95296" lon="6.0579">
        <ele>900.892578</ele>
        <time>2011-04-16T15:15:11Z</time>
      </trkpt>
      <trkpt lat="45.95296" lon="6.058">
        <ele>898.008789</ele>
        <time>2011-04-16T15:15:19Z</time>
      </trkpt>
      <trkpt lat="45.95294" lon="6.05806">
        <ele>896.086182</ele>
        <time>2011-04-16T15:15:26Z</time>
      </trkpt>
      <trkpt lat="45.95293" lon="6.05817">
        <ele>895.124756</ele>
        <time>2011-04-16T15:15:34Z</time>
      </trkpt>
      <trkpt lat="45.95291" lon="6.05827">
        <ele>894.163574</ele>
        <time>2011-04-16T15:15:42Z</time>
      </trkpt>
      <trkpt lat="45.95288" lon="6.05839">
        <ele>894.644043</ele>
        <time>2011-04-16T15:15:49Z</time>
      </trkpt>
      <trkpt lat="45.95281" lon="6.05843">
        <ele>896.566895</ele>
        <time>2011-04-16T15:15:57Z</time>
      </trkpt>
      <trkpt lat="45.95274" lon="6.05846">
        <ele>898.969971</ele>
        <time>2011-04-16T15:16:04Z</time>
      </trkpt>
      <trkpt lat="45.95273" lon="6.05846">
        <ele>898.489258</ele>
        <time>2011-04-16T15:16:05Z</time>
      </trkpt>
      <trkpt lat="45.95269" lon="6.05847">
        <ele>900.412109</ele>
        <time>2011-04-16T15:16:08Z</time>
      </trkpt>
      <trkpt lat="45.95264" lon="6.05848">
        <ele>900.412109</ele>
        <time>2011-04-16T15:16:15Z</time>
      </trkpt>
      <trkpt lat="45.95259" lon="6.05853">
        <ele>899.931396</ele>
        <time>2011-04-16T15:16:22Z</time>
      </trkpt>
      <trkpt lat="45.95253" lon="6.05857">
        <ele>899.931396</ele>
        <time>2011-04-16T15:16:29Z</time>
      </trkpt>
      <trkpt lat="45.9525" lon="6.05859">
        <ele>901.373291</ele>
        <time>2011-04-16T15:16:35Z</time>
      </trkpt>
      <trkpt lat="45.95246" lon="6.05864">
        <ele>902.334473</ele>
        <time>2011-04-16T15:16:43Z</time>
      </trkpt>
      <trkpt lat="45.95243" lon="6.05865">
        <ele>902.334473</ele>
        <time>2011-04-16T15:16:53Z</time>
      </trkpt>
      <trkpt lat="45.9524" lon="6.05867">
        <ele>903.295898</ele>
        <time>2011-04-16T15:17:20Z</time>
      </trkpt>
      <trkpt lat="45.95241" lon="6.05875">
        <ele>900.892578</ele>
        <time>2011-04-16T15:18:33Z</time>
      </trkpt>
      <trkpt lat="45.95243" lon="6.05878">
        <ele>901.373291</ele>
        <time>2011-04-16T15:18:43Z</time>
      </trkpt>
      <trkpt lat="45.95245" lon="6.0588">
        <ele>899.931396</ele>
        <time>2011-04-16T15:18:49Z</time>
      </trkpt>
      <trkpt lat="45.95252" lon="6.05886">
        <ele>898.969971</ele>
        <time>2011-04-16T15:18:58Z</time>
      </trkpt>
      <trkpt lat="45.95259" lon="6.05887">
        <ele>898.489258</ele>
        <time>2011-04-16T15:19:06Z</time>
      </trkpt>
      <trkpt lat="45.95267" lon="6.05886">
        <ele>895.605469</ele>
        <time>2011-04-16T15:19:14Z</time>
      </trkpt>
      <trkpt lat="45.95275" lon="6.05881">
        <ele>895.605469</ele>
        <time>2011-04-16T15:19:21Z</time>
      </trkpt>
      <trkpt lat="45.95278" lon="6.05878">
        <ele>895.124756</ele>
        <time>2011-04-16T15:19:26Z</time>
      </trkpt>
      <trkpt lat="45.95284" lon="6.05871">
        <ele>895.605469</ele>
        <time>2011-04-16T15:19:33Z</time>
      </trkpt>
      <trkpt lat="45.95293" lon="6.05859">
        <ele>893.682861</ele>
        <time>2011-04-16T15:19:44Z</time>
      </trkpt>
      <trkpt lat="45.95298" lon="6.05853">
        <ele>892.240967</ele>
        <time>2011-04-16T15:19:51Z</time>
      </trkpt>
      <trkpt lat="45.95307" lon="6.05848">
        <ele>890.798584</ele>
        <time>2011-04-16T15:20:00Z</time>
      </trkpt>
      <trkpt lat="45.95311" lon="6.05847">
        <ele>891.279297</ele>
        <time>2011-04-16T15:20:07Z</time>
      </trkpt>
      <trkpt lat="45.95315" lon="6.05857">
        <ele>889.356689</ele>
        <time>2011-04-16T15:20:14Z</time>
      </trkpt>
      <trkpt lat="45.95318" lon="6.05865">
        <ele>887.434082</ele>
        <time>2011-04-16T15:20:21Z</time>
      </trkpt>
      <trkpt lat="45.95317" lon="6.05871">
        <ele>886.4729</ele>
        <time>2011-04-16T15:20:26Z</time>
      </trkpt>
      <trkpt lat="45.95319" lon="6.05885">
        <ele>884.550293</ele>
        <time>2011-04-16T15:20:35Z</time>
      </trkpt>
      <trkpt lat="45.95319" lon="6.05895">
        <ele>883.588867</ele>
        <time>2011-04-16T15:20:41Z</time>
      </trkpt>
      <trkpt lat="45.95317" lon="6.05905">
        <ele>883.588867</ele>
        <time>2011-04-16T15:20:48Z</time>
      </trkpt>
      <trkpt lat="45.95314" lon="6.05912">
        <ele>883.588867</ele>
        <time>2011-04-16T15:20:54Z</time>
      </trkpt>
      <trkpt lat="45.95308" lon="6.05922">
        <ele>883.588867</ele>
        <time>2011-04-16T15:21:03Z</time>
      </trkpt>
      <trkpt lat="45.95303" lon="6.0593">
        <ele>883.588867</ele>
        <time>2011-04-16T15:21:11Z</time>
      </trkpt>
      <trkpt lat="45.95295" lon="6.0594">
        <ele>881.66626</ele>
        <time>2011-04-16T15:21:19Z</time>
      </trkpt>
      <trkpt lat="45.95289" lon="6.05947">
        <ele>880.224365</ele>
        <time>2011-04-16T15:21:26Z</time>
      </trkpt>
      <trkpt lat="45.95285" lon="6.05954">
        <ele>879.262939</ele>
        <time>2011-04-16T15:21:30Z</time>
      </trkpt>
      <trkpt lat="45.95281" lon="6.05963">
        <ele>876.859863</ele>
        <time>2011-04-16T15:21:37Z</time>
      </trkpt>
      <trkpt lat="45.95278" lon="6.05969">
        <ele>875.41748</ele>
        <time>2011-04-16T15:21:40Z</time>
      </trkpt>
      <trkpt lat="45.95275" lon="6.05983">
        <ele>873.975586</ele>
        <time>2011-04-16T15:21:48Z</time>
      </trkpt>
      <trkpt lat="45.95268" lon="6.05994">
        <ele>872.052979</ele>
        <time>2011-04-16T15:21:57Z</time>
      </trkpt>
      <trkpt lat="45.95263" lon="6.06001">
        <ele>870.611084</ele>
        <time>2011-04-16T15:22:03Z</time>
      </trkpt>
      <trkpt lat="45.95256" lon="6.06008">
        <ele>869.649902</ele>
        <time>2011-04-16T15:22:11Z</time>
      </trkpt>
      <trkpt lat="45.95249" lon="6.06019">
        <ele>867.246582</ele>
        <time>2011-04-16T15:22:20Z</time>
      </trkpt>
      <trkpt lat="45.95242" lon="6.06024">
        <ele>865.804688</ele>
        <time>2011-04-16T15:22:26Z</time>
      </trkpt>
      <trkpt lat="45.95237" lon="6.0603">
        <ele>863.881836</ele>
        <time>2011-04-16T15:22:32Z</time>
      </trkpt>
      <trkpt lat="45.95229" lon="6.0604">
        <ele>862.439941</ele>
        <time>2011-04-16T15:22:38Z</time>
      </trkpt>
      <trkpt lat="45.95227" lon="6.06044">
        <ele>862.439941</ele>
        <time>2011-04-16T15:22:41Z</time>
      </trkpt>
      <trkpt lat="45.95222" lon="6.06051">
        <ele>861.959473</ele>
        <time>2011-04-16T15:22:48Z</time>
      </trkpt>
      <trkpt lat="45.95219" lon="6.06053">
        <ele>861.959473</ele>
        <time>2011-04-16T15:22:50Z</time>
      </trkpt>
      <trkpt lat="45.95209" lon="6.06059">
        <ele>860.998047</ele>
        <time>2011-04-16T15:22:59Z</time>
      </trkpt>
      <trkpt lat="45.95199" lon="6.06066">
        <ele>860.517334</ele>
        <time>2011-04-16T15:23:08Z</time>
      </trkpt>
      <trkpt lat="45.9519" lon="6.06075">
        <ele>858.114014</ele>
        <time>2011-04-16T15:23:15Z</time>
      </trkpt>
      <trkpt lat="45.95187" lon="6.06086">
        <ele>855.710693</ele>
        <time>2011-04-16T15:23:22Z</time>
      </trkpt>
      <trkpt lat="45.95186" lon="6.06091">
        <ele>855.22998</ele>
        <time>2011-04-16T15:23:25Z</time>
      </trkpt>
      <trkpt lat="45.95186" lon="6.06102">
        <ele>851.865479</ele>
        <time>2011-04-16T15:23:31Z</time>
      </trkpt>
      <trkpt lat="45.95185" lon="6.06113">
        <ele>849.462158</ele>
        <time>2011-04-16T15:23:39Z</time>
      </trkpt>
      <trkpt lat="45.95186" lon="6.06127">
        <ele>847.539551</ele>
        <time>2011-04-16T15:23:48Z</time>
      </trkpt>
      <trkpt lat="45.95186" lon="6.06138">
        <ele>846.097656</ele>
        <time>2011-04-16T15:23:55Z</time>
      </trkpt>
      <trkpt lat="45.9519" lon="6.06146">
        <ele>844.175049</ele>
        <time>2011-04-16T15:24:00Z</time>
      </trkpt>
      <trkpt lat="45.95191" lon="6.06153">
        <ele>842.73291</ele>
        <time>2011-04-16T15:24:04Z</time>
      </trkpt>
      <trkpt lat="45.95192" lon="6.06155">
        <ele>842.73291</ele>
        <time>2011-04-16T15:24:06Z</time>
      </trkpt>
      <trkpt lat="45.952" lon="6.06165">
        <ele>840.32959</ele>
        <time>2011-04-16T15:24:14Z</time>
      </trkpt>
      <trkpt lat="45.95202" lon="6.06167">
        <ele>840.32959</ele>
        <time>2011-04-16T15:24:16Z</time>
      </trkpt>
      <trkpt lat="45.95218" lon="6.06174">
        <ele>838.887695</ele>
        <time>2011-04-16T15:24:27Z</time>
      </trkpt>
      <trkpt lat="45.95227" lon="6.06174">
        <ele>836.484375</ele>
        <time>2011-04-16T15:24:35Z</time>
      </trkpt>
      <trkpt lat="45.95236" lon="6.06172">
        <ele>835.04248</ele>
        <time>2011-04-16T15:24:42Z</time>
      </trkpt>
      <trkpt lat="45.95243" lon="6.06167">
        <ele>833.600342</ele>
        <time>2011-04-16T15:24:50Z</time>
      </trkpt>
      <trkpt lat="45.95251" lon="6.06164">
        <ele>830.23584</ele>
        <time>2011-04-16T15:24:58Z</time>
      </trkpt>
      <trkpt lat="45.95263" lon="6.06161">
        <ele>827.351807</ele>
        <time>2011-04-16T15:25:07Z</time>
      </trkpt>
      <trkpt lat="45.95274" lon="6.06164">
        <ele>825.428955</ele>
        <time>2011-04-16T15:25:16Z</time>
      </trkpt>
      <trkpt lat="45.95277" lon="6.06163">
        <ele>824.948486</ele>
        <time>2011-04-16T15:25:18Z</time>
      </trkpt>
      <trkpt lat="45.95285" lon="6.06162">
        <ele>823.987061</ele>
        <time>2011-04-16T15:25:25Z</time>
      </trkpt>
      <trkpt lat="45.95292" lon="6.06162">
        <ele>823.506592</ele>
        <time>2011-04-16T15:25:32Z</time>
      </trkpt>
      <trkpt lat="45.953" lon="6.06168">
        <ele>822.545166</ele>
        <time>2011-04-16T15:25:39Z</time>
      </trkpt>
      <trkpt lat="45.95307" lon="6.06173">
        <ele>821.58374</ele>
        <time>2011-04-16T15:25:47Z</time>
      </trkpt>
      <trkpt lat="45.95308" lon="6.06175">
        <ele>820.622559</ele>
        <time>2011-04-16T15:25:49Z</time>
      </trkpt>
      <trkpt lat="45.95314" lon="6.06182">
        <ele>820.622559</ele>
        <time>2011-04-16T15:25:56Z</time>
      </trkpt>
      <trkpt lat="45.95316" lon="6.06194">
        <ele>817.738525</ele>
        <time>2011-04-16T15:26:03Z</time>
      </trkpt>
      <trkpt lat="45.95318" lon="6.06207">
        <ele>815.816162</ele>
        <time>2011-04-16T15:26:11Z</time>
      </trkpt>
      <trkpt lat="45.95318" lon="6.06215">
        <ele>813.893311</ele>
        <time>2011-04-16T15:26:17Z</time>
      </trkpt>
      <trkpt lat="45.95315" lon="6.06225">
        <ele>812.451416</ele>
        <time>2011-04-16T15:26:25Z</time>
      </trkpt>
      <trkpt lat="45.95309" lon="6.06239">
        <ele>811.970703</ele>
        <time>2011-04-16T15:26:33Z</time>
      </trkpt>
      <trkpt lat="45.95302" lon="6.06246">
        <ele>809.567383</ele>
        <time>2011-04-16T15:26:41Z</time>
      </trkpt>
      <trkpt lat="45.95299" lon="6.0625">
        <ele>809.567383</ele>
        <time>2011-04-16T15:26:44Z</time>
      </trkpt>
      <trkpt lat="45.95287" lon="6.06262">
        <ele>808.605957</ele>
        <time>2011-04-16T15:26:52Z</time>
      </trkpt>
      <trkpt lat="45.95278" lon="6.06267">
        <ele>807.644775</ele>
        <time>2011-04-16T15:27:00Z</time>
      </trkpt>
      <trkpt lat="45.9527" lon="6.06273">
        <ele>806.202637</ele>
        <time>2011-04-16T15:27:08Z</time>
      </trkpt>
      <trkpt lat="45.95265" lon="6.06275">
        <ele>804.280273</ele>
        <time>2011-04-16T15:27:14Z</time>
      </trkpt>
      <trkpt lat="45.95256" lon="6.06283">
        <ele>801.876953</ele>
        <time>2011-04-16T15:27:22Z</time>
      </trkpt>
      <trkpt lat="45.95249" lon="6.06292">
        <ele>798.99292</ele>
        <time>2011-04-16T15:27:29Z</time>
      </trkpt>
      <trkpt lat="45.95251" lon="6.06298">
        <ele>798.99292</ele>
        <time>2011-04-16T15:27:35Z</time>
      </trkpt>
      <trkpt lat="45.95256" lon="6.06304">
        <ele>798.512207</ele>
        <time>2011-04-16T15:27:43Z</time>
      </trkpt>
      <trkpt lat="45.95262" lon="6.06308">
        <ele>798.99292</ele>
        <time>2011-04-16T15:27:49Z</time>
      </trkpt>
      <trkpt lat="45.95272" lon="6.06319">
        <ele>798.512207</ele>
        <time>2011-04-16T15:27:58Z</time>
      </trkpt>
      <trkpt lat="45.9528" lon="6.06324">
        <ele>798.512207</ele>
        <time>2011-04-16T15:28:06Z</time>
      </trkpt>
      <trkpt lat="45.9529" lon="6.0633">
        <ele>797.070313</ele>
        <time>2011-04-16T15:28:14Z</time>
      </trkpt>
      <trkpt lat="45.95298" lon="6.06341">
        <ele>795.147461</ele>
        <time>2011-04-16T15:28:21Z</time>
      </trkpt>
      <trkpt lat="45.95303" lon="6.06349">
        <ele>794.186279</ele>
        <time>2011-04-16T15:28:28Z</time>
      </trkpt>
      <trkpt lat="45.95307" lon="6.06355">
        <ele>793.224854</ele>
        <time>2011-04-16T15:28:33Z</time>
      </trkpt>
      <trkpt lat="45.95319" lon="6.06365">
        <ele>790.341064</ele>
        <time>2011-04-16T15:28:43Z</time>
      </trkpt>
      <trkpt lat="45.95321" lon="6.06366">
        <ele>789.860352</ele>
        <time>2011-04-16T15:28:45Z</time>
      </trkpt>
      <trkpt lat="45.95334" lon="6.0637">
        <ele>787.457031</ele>
        <time>2011-04-16T15:28:54Z</time>
      </trkpt>
      <trkpt lat="45.95346" lon="6.06372">
        <ele>785.534424</ele>
        <time>2011-04-16T15:29:03Z</time>
      </trkpt>
      <trkpt lat="45.95358" lon="6.06373">
        <ele>783.131104</ele>
        <time>2011-04-16T15:29:12Z</time>
      </trkpt>
      <trkpt lat="45.95367" lon="6.06374">
        <ele>780.247314</ele>
        <time>2011-04-16T15:29:20Z</time>
      </trkpt>
      <trkpt lat="45.95368" lon="6.06374">
        <ele>780.247314</ele>
        <time>2011-04-16T15:29:21Z</time>
      </trkpt>
      <trkpt lat="45.95377" lon="6.06374">
        <ele>778.324463</ele>
        <time>2011-04-16T15:29:29Z</time>
      </trkpt>
      <trkpt lat="45.95386" lon="6.06374">
        <ele>775.921143</ele>
        <time>2011-04-16T15:29:37Z</time>
      </trkpt>
      <trkpt lat="45.95395" lon="6.06376">
        <ele>773.037354</ele>
        <time>2011-04-16T15:29:45Z</time>
      </trkpt>
      <trkpt lat="45.95403" lon="6.06374">
        <ele>771.114746</ele>
        <time>2011-04-16T15:29:52Z</time>
      </trkpt>
      <trkpt lat="45.95408" lon="6.06368">
        <ele>768.711426</ele>
        <time>2011-04-16T15:30:00Z</time>
      </trkpt>
      <trkpt lat="45.95411" lon="6.06365">
        <ele>767.269531</ele>
        <time>2011-04-16T15:30:06Z</time>
      </trkpt>
      <trkpt lat="45.95415" lon="6.06355">
        <ele>765.827637</ele>
        <time>2011-04-16T15:30:12Z</time>
      </trkpt>
      <trkpt lat="45.95421" lon="6.06349">
        <ele>764.385498</ele>
        <time>2011-04-16T15:30:18Z</time>
      </trkpt>
      <trkpt lat="45.95428" lon="6.06338">
        <ele>762.943359</ele>
        <time>2011-04-16T15:30:26Z</time>
      </trkpt>
      <trkpt lat="45.95434" lon="6.06333">
        <ele>761.982178</ele>
        <time>2011-04-16T15:30:32Z</time>
      </trkpt>
      <trkpt lat="45.95442" lon="6.06327">
        <ele>760.540039</ele>
        <time>2011-04-16T15:30:40Z</time>
      </trkpt>
      <trkpt lat="45.9545" lon="6.06318">
        <ele>760.059326</ele>
        <time>2011-04-16T15:30:49Z</time>
      </trkpt>
      <trkpt lat="45.95457" lon="6.06309">
        <ele>759.098145</ele>
        <time>2011-04-16T15:30:58Z</time>
      </trkpt>
      <trkpt lat="45.9546" lon="6.06306">
        <ele>757.65625</ele>
        <time>2011-04-16T15:31:00Z</time>
      </trkpt>
      <trkpt lat="45.95465" lon="6.06301">
        <ele>755.733643</ele>
        <time>2011-04-16T15:31:06Z</time>
      </trkpt>
      <trkpt lat="45.95471" lon="6.06294">
        <ele>754.772217</ele>
        <time>2011-04-16T15:31:13Z</time>
      </trkpt>
      <trkpt lat="45.95479" lon="6.06287">
        <ele>753.330322</ele>
        <time>2011-04-16T15:31:20Z</time>
      </trkpt>
      <trkpt lat="45.95484" lon="6.06277">
        <ele>751.888428</ele>
        <time>2011-04-16T15:31:26Z</time>
      </trkpt>
      <trkpt lat="45.95491" lon="6.06267">
        <ele>752.368896</ele>
        <time>2011-04-16T15:31:34Z</time>
      </trkpt>
      <trkpt lat="45.95493" lon="6.06257">
        <ele>752.368896</ele>
        <time>2011-04-16T15:31:41Z</time>
      </trkpt>
      <trkpt lat="45.95501" lon="6.06245">
        <ele>751.888428</ele>
        <time>2011-04-16T15:31:48Z</time>
      </trkpt>
      <trkpt lat="45.95503" lon="6.06244">
        <ele>750.927002</ele>
        <time>2011-04-16T15:31:50Z</time>
      </trkpt>
      <trkpt lat="45.95512" lon="6.0624">
        <ele>750.446533</ele>
        <time>2011-04-16T15:31:57Z</time>
      </trkpt>
      <trkpt lat="45.95517" lon="6.06233">
        <ele>749.96582</ele>
        <time>2011-04-16T15:32:04Z</time>
      </trkpt>
      <trkpt lat="45.95527" lon="6.06224">
        <ele>749.004395</ele>
        <time>2011-04-16T15:32:12Z</time>
      </trkpt>
      <trkpt lat="45.95535" lon="6.06218">
        <ele>749.004395</ele>
        <time>2011-04-16T15:32:18Z</time>
      </trkpt>
      <trkpt lat="45.9554" lon="6.06212">
        <ele>749.485107</ele>
        <time>2011-04-16T15:32:24Z</time>
      </trkpt>
      <trkpt lat="45.95544" lon="6.06205">
        <ele>749.96582</ele>
        <time>2011-04-16T15:32:29Z</time>
      </trkpt>
      <trkpt lat="45.95551" lon="6.06193">
        <ele>749.96582</ele>
        <time>2011-04-16T15:32:37Z</time>
      </trkpt>
      <trkpt lat="45.95561" lon="6.06189">
        <ele>749.96582</ele>
        <time>2011-04-16T15:32:46Z</time>
      </trkpt>
      <trkpt lat="45.95574" lon="6.0619">
        <ele>749.004395</ele>
        <time>2011-04-16T15:32:55Z</time>
      </trkpt>
      <trkpt lat="45.95586" lon="6.0619">
        <ele>748.523682</ele>
        <time>2011-04-16T15:33:05Z</time>
      </trkpt>
      <trkpt lat="45.95596" lon="6.0619">
        <ele>749.004395</ele>
        <time>2011-04-16T15:33:13Z</time>
      </trkpt>
      <trkpt lat="45.95605" lon="6.06187">
        <ele>749.485107</ele>
        <time>2011-04-16T15:33:21Z</time>
      </trkpt>
      <trkpt lat="45.95615" lon="6.06189">
        <ele>748.043213</ele>
        <time>2011-04-16T15:38:43Z</time>
      </trkpt>
      <trkpt lat="45.95617" lon="6.06189">
        <ele>747.081543</ele>
        <time>2011-04-16T15:39:02Z</time>
      </trkpt>
      <trkpt lat="45.95622" lon="6.06193">
        <ele>747.081543</ele>
        <time>2011-04-16T15:39:20Z</time>
      </trkpt>
      <trkpt lat="45.9563" lon="6.06195">
        <ele>747.562256</ele>
        <time>2011-04-16T15:39:26Z</time>
      </trkpt>
      <trkpt lat="45.9564" lon="6.06201">
        <ele>748.043213</ele>
        <time>2011-04-16T15:39:38Z</time>
      </trkpt>
      <trkpt lat="45.95649" lon="6.06205">
        <ele>749.004395</ele>
        <time>2011-04-16T15:39:46Z</time>
      </trkpt>
      <trkpt lat="45.95663" lon="6.0621">
        <ele>750.446533</ele>
        <time>2011-04-16T15:39:55Z</time>
      </trkpt>
      <trkpt lat="45.95674" lon="6.06215">
        <ele>750.927002</ele>
        <time>2011-04-16T15:40:03Z</time>
      </trkpt>
      <trkpt lat="45.95685" lon="6.06219">
        <ele>749.96582</ele>
        <time>2011-04-16T15:40:12Z</time>
      </trkpt>
      <trkpt lat="45.95692" lon="6.06224">
        <ele>749.96582</ele>
        <time>2011-04-16T15:40:17Z</time>
      </trkpt>
      <trkpt lat="45.95697" lon="6.06226">
        <ele>750.446533</ele>
        <time>2011-04-16T15:40:23Z</time>
      </trkpt>
      <trkpt lat="45.95706" lon="6.06236">
        <ele>750.446533</ele>
        <time>2011-04-16T15:40:30Z</time>
      </trkpt>
      <trkpt lat="45.95716" lon="6.06243">
        <ele>750.927002</ele>
        <time>2011-04-16T15:40:37Z</time>
      </trkpt>
      <trkpt lat="45.95722" lon="6.06255">
        <ele>751.407715</ele>
        <time>2011-04-16T15:40:45Z</time>
      </trkpt>
      <trkpt lat="45.95727" lon="6.06261">
        <ele>751.407715</ele>
        <time>2011-04-16T15:40:52Z</time>
      </trkpt>
      <trkpt lat="45.95732" lon="6.06267">
        <ele>752.368896</ele>
        <time>2011-04-16T15:40:59Z</time>
      </trkpt>
      <trkpt lat="45.95739" lon="6.06272">
        <ele>752.368896</ele>
        <time>2011-04-16T15:41:05Z</time>
      </trkpt>
      <trkpt lat="45.95749" lon="6.06276">
        <ele>753.811035</ele>
        <time>2011-04-16T15:41:14Z</time>
      </trkpt>
      <trkpt lat="45.95761" lon="6.06283">
        <ele>753.811035</ele>
        <time>2011-04-16T15:41:23Z</time>
      </trkpt>
      <trkpt lat="45.95776" lon="6.06293">
        <ele>752.849609</ele>
        <time>2011-04-16T15:41:35Z</time>
      </trkpt>
      <trkpt lat="45.95777" lon="6.06297">
        <ele>753.330322</ele>
        <time>2011-04-16T15:41:37Z</time>
      </trkpt>
      <trkpt lat="45.95785" lon="6.06305">
        <ele>752.368896</ele>
        <time>2011-04-16T15:41:45Z</time>
      </trkpt>
      <trkpt lat="45.95788" lon="6.06309">
        <ele>752.849609</ele>
        <time>2011-04-16T15:41:49Z</time>
      </trkpt>
      <trkpt lat="45.95792" lon="6.06322">
        <ele>752.368896</ele>
        <time>2011-04-16T15:41:59Z</time>
      </trkpt>
      <trkpt lat="45.95793" lon="6.06335">
        <ele>752.368896</ele>
        <time>2011-04-16T15:42:08Z</time>
      </trkpt>
      <trkpt lat="45.95792" lon="6.0634">
        <ele>750.446533</ele>
        <time>2011-04-16T15:42:11Z</time>
      </trkpt>
      <trkpt lat="45.95792" lon="6.06356">
        <ele>749.96582</ele>
        <time>2011-04-16T15:42:17Z</time>
      </trkpt>
      <trkpt lat="45.95795" lon="6.06373">
        <ele>749.96582</ele>
        <time>2011-04-16T15:42:26Z</time>
      </trkpt>
      <trkpt lat="45.95793" lon="6.06387">
        <ele>749.96582</ele>
        <time>2011-04-16T15:42:32Z</time>
      </trkpt>
      <trkpt lat="45.95792" lon="6.06395">
        <ele>749.485107</ele>
        <time>2011-04-16T15:42:37Z</time>
      </trkpt>
      <trkpt lat="45.95793" lon="6.064">
        <ele>748.043213</ele>
        <time>2011-04-16T15:42:43Z</time>
      </trkpt>
      <trkpt lat="45.95793" lon="6.06403">
        <ele>748.043213</ele>
        <time>2011-04-16T15:42:45Z</time>
      </trkpt>
      <trkpt lat="45.95798" lon="6.06416">
        <ele>747.562256</ele>
        <time>2011-04-16T15:42:54Z</time>
      </trkpt>
      <trkpt lat="45.95804" lon="6.0643">
        <ele>748.523682</ele>
        <time>2011-04-16T15:43:03Z</time>
      </trkpt>
      <trkpt lat="45.95805" lon="6.06442">
        <ele>748.523682</ele>
        <time>2011-04-16T15:43:09Z</time>
      </trkpt>
      <trkpt lat="45.95805" lon="6.0645">
        <ele>748.523682</ele>
        <time>2011-04-16T15:43:13Z</time>
      </trkpt>
      <trkpt lat="45.95804" lon="6.06464">
        <ele>748.523682</ele>
        <time>2011-04-16T15:43:21Z</time>
      </trkpt>
      <trkpt lat="45.95808" lon="6.06474">
        <ele>748.523682</ele>
        <time>2011-04-16T15:43:26Z</time>
      </trkpt>
      <trkpt lat="45.95812" lon="6.06484">
        <ele>748.043213</ele>
        <time>2011-04-16T15:43:33Z</time>
      </trkpt>
      <trkpt lat="45.95811" lon="6.06496">
        <ele>748.043213</ele>
        <time>2011-04-16T15:43:39Z</time>
      </trkpt>
      <trkpt lat="45.95807" lon="6.06503">
        <ele>748.043213</ele>
        <time>2011-04-16T15:43:43Z</time>
      </trkpt>
      <trkpt lat="45.958" lon="6.06511">
        <ele>747.562256</ele>
        <time>2011-04-16T15:43:50Z</time>
      </trkpt>
      <trkpt lat="45.95791" lon="6.06526">
        <ele>746.601074</ele>
        <time>2011-04-16T15:43:58Z</time>
      </trkpt>
      <trkpt lat="45.95783" lon="6.06537">
        <ele>746.120361</ele>
        <time>2011-04-16T15:44:05Z</time>
      </trkpt>
      <trkpt lat="45.95784" lon="6.06551">
        <ele>746.120361</ele>
        <time>2011-04-16T15:44:12Z</time>
      </trkpt>
      <trkpt lat="45.95789" lon="6.06561">
        <ele>746.120361</ele>
        <time>2011-04-16T15:44:19Z</time>
      </trkpt>
      <trkpt lat="45.95792" lon="6.06573">
        <ele>745.639648</ele>
        <time>2011-04-16T15:44:26Z</time>
      </trkpt>
      <trkpt lat="45.95794" lon="6.06579">
        <ele>745.639648</ele>
        <time>2011-04-16T15:44:32Z</time>
      </trkpt>
      <trkpt lat="45.95792" lon="6.06589">
        <ele>743.717041</ele>
        <time>2011-04-16T15:44:38Z</time>
      </trkpt>
      <trkpt lat="45.9579" lon="6.06603">
        <ele>747.081543</ele>
        <time>2011-04-16T15:44:43Z</time>
      </trkpt>
      <trkpt lat="45.95789" lon="6.06604">
        <ele>746.601074</ele>
        <time>2011-04-16T15:44:44Z</time>
      </trkpt>
      <trkpt lat="45.95786" lon="6.06614">
        <ele>745.639648</ele>
        <time>2011-04-16T15:44:51Z</time>
      </trkpt>
      <trkpt lat="45.95784" lon="6.06622">
        <ele>745.639648</ele>
        <time>2011-04-16T15:44:56Z</time>
      </trkpt>
      <trkpt lat="45.95783" lon="6.06637">
        <ele>745.158936</ele>
        <time>2011-04-16T15:45:03Z</time>
      </trkpt>
      <trkpt lat="45.95783" lon="6.06645">
        <ele>744.678223</ele>
        <time>2011-04-16T15:45:08Z</time>
      </trkpt>
      <trkpt lat="45.95784" lon="6.06658">
        <ele>744.197754</ele>
        <time>2011-04-16T15:45:15Z</time>
      </trkpt>
      <trkpt lat="45.95781" lon="6.06671">
        <ele>743.717041</ele>
        <time>2011-04-16T15:45:21Z</time>
      </trkpt>
      <trkpt lat="45.95781" lon="6.06674">
        <ele>743.717041</ele>
        <time>2011-04-16T15:45:23Z</time>
      </trkpt>
      <trkpt lat="45.95781" lon="6.06683">
        <ele>743.236328</ele>
        <time>2011-04-16T15:45:30Z</time>
      </trkpt>
      <trkpt lat="45.9578" lon="6.06691">
        <ele>743.236328</ele>
        <time>2011-04-16T15:45:36Z</time>
      </trkpt>
      <trkpt lat="45.95788" lon="6.06703">
        <ele>743.236328</ele>
        <time>2011-04-16T15:45:44Z</time>
      </trkpt>
      <trkpt lat="45.95795" lon="6.06713">
        <ele>743.236328</ele>
        <time>2011-04-16T15:45:51Z</time>
      </trkpt>
      <trkpt lat="45.958" lon="6.06722">
        <ele>743.236328</ele>
        <time>2011-04-16T15:45:59Z</time>
      </trkpt>
      <trkpt lat="45.95806" lon="6.06726">
        <ele>743.717041</ele>
        <time>2011-04-16T15:46:04Z</time>
      </trkpt>
      <trkpt lat="45.95815" lon="6.06727">
        <ele>743.236328</ele>
        <time>2011-04-16T15:46:11Z</time>
      </trkpt>
      <trkpt lat="45.95826" lon="6.0673">
        <ele>744.197754</ele>
        <time>2011-04-16T15:46:19Z</time>
      </trkpt>
      <trkpt lat="45.95836" lon="6.06736">
        <ele>744.678223</ele>
        <time>2011-04-16T15:46:26Z</time>
      </trkpt>
      <trkpt lat="45.95839" lon="6.0674">
        <ele>744.678223</ele>
        <time>2011-04-16T15:46:29Z</time>
      </trkpt>
      <trkpt lat="45.95849" lon="6.06749">
        <ele>744.678223</ele>
        <time>2011-04-16T15:46:37Z</time>
      </trkpt>
      <trkpt lat="45.95855" lon="6.0675">
        <ele>744.678223</ele>
        <time>2011-04-16T15:46:42Z</time>
      </trkpt>
      <trkpt lat="45.95863" lon="6.06747">
        <ele>745.158936</ele>
        <time>2011-04-16T15:46:49Z</time>
      </trkpt>
      <trkpt lat="45.9587" lon="6.06743">
        <ele>745.158936</ele>
        <time>2011-04-16T15:46:55Z</time>
      </trkpt>
      <trkpt lat="45.95882" lon="6.06735">
        <ele>744.678223</ele>
        <time>2011-04-16T15:47:05Z</time>
      </trkpt>
      <trkpt lat="45.95883" lon="6.06736">
        <ele>745.639648</ele>
        <time>2011-04-16T15:47:06Z</time>
      </trkpt>
      <trkpt lat="45.95897" lon="6.0674">
        <ele>744.678223</ele>
        <time>2011-04-16T15:47:14Z</time>
      </trkpt>
      <trkpt lat="45.95909" lon="6.06747">
        <ele>745.158936</ele>
        <time>2011-04-16T15:47:23Z</time>
      </trkpt>
      <trkpt lat="45.95917" lon="6.06755">
        <ele>745.639648</ele>
        <time>2011-04-16T15:47:30Z</time>
      </trkpt>
      <trkpt lat="45.95923" lon="6.06765">
        <ele>746.601074</ele>
        <time>2011-04-16T15:47:39Z</time>
      </trkpt>
      <trkpt lat="45.95927" lon="6.06777">
        <ele>746.120361</ele>
        <time>2011-04-16T15:47:47Z</time>
      </trkpt>
      <trkpt lat="45.95934" lon="6.0679">
        <ele>747.081543</ele>
        <time>2011-04-16T15:47:56Z</time>
      </trkpt>
      <trkpt lat="45.95936" lon="6.06796">
        <ele>747.562256</ele>
        <time>2011-04-16T15:48:00Z</time>
      </trkpt>
      <trkpt lat="45.9594" lon="6.06809">
        <ele>749.004395</ele>
        <time>2011-04-16T15:48:09Z</time>
      </trkpt>
      <trkpt lat="45.95941" lon="6.06811">
        <ele>748.043213</ele>
        <time>2011-04-16T15:48:10Z</time>
      </trkpt>
      <trkpt lat="45.95941" lon="6.06816">
        <ele>749.004395</ele>
        <time>2011-04-16T15:48:13Z</time>
      </trkpt>
      <trkpt lat="45.95945" lon="6.06829">
        <ele>749.485107</ele>
        <time>2011-04-16T15:48:22Z</time>
      </trkpt>
      <trkpt lat="45.95949" lon="6.06838">
        <ele>749.96582</ele>
        <time>2011-04-16T15:48:27Z</time>
      </trkpt>
      <trkpt lat="45.95955" lon="6.06854">
        <ele>749.004395</ele>
        <time>2011-04-16T15:48:37Z</time>
      </trkpt>
      <trkpt lat="45.95957" lon="6.06862">
        <ele>748.043213</ele>
        <time>2011-04-16T15:48:42Z</time>
      </trkpt>
      <trkpt lat="45.95959" lon="6.06875">
        <ele>746.120361</ele>
        <time>2011-04-16T15:48:49Z</time>
      </trkpt>
      <trkpt lat="45.9596" lon="6.06888">
        <ele>745.158936</ele>
        <time>2011-04-16T15:48:56Z</time>
      </trkpt>
      <trkpt lat="45.95963" lon="6.06903">
        <ele>744.678223</ele>
        <time>2011-04-16T15:49:03Z</time>
      </trkpt>
      <trkpt lat="45.95966" lon="6.06918">
        <ele>743.236328</ele>
        <time>2011-04-16T15:49:12Z</time>
      </trkpt>
      <trkpt lat="45.95968" lon="6.0693">
        <ele>743.236328</ele>
        <time>2011-04-16T15:49:18Z</time>
      </trkpt>
      <trkpt lat="45.95971" lon="6.06946">
        <ele>742.275146</ele>
        <time>2011-04-16T15:49:26Z</time>
      </trkpt>
      <trkpt lat="45.95975" lon="6.06963">
        <ele>740.833008</ele>
        <time>2011-04-16T15:49:34Z</time>
      </trkpt>
      <trkpt lat="45.95981" lon="6.06974">
        <ele>740.352539</ele>
        <time>2011-04-16T15:49:41Z</time>
      </trkpt>
      <trkpt lat="45.95984" lon="6.06989">
        <ele>740.352539</ele>
        <time>2011-04-16T15:49:47Z</time>
      </trkpt>
      <trkpt lat="45.95986" lon="6.06997">
        <ele>740.352539</ele>
        <time>2011-04-16T15:49:52Z</time>
      </trkpt>
      <trkpt lat="45.95989" lon="6.07011">
        <ele>740.352539</ele>
        <time>2011-04-16T15:49:59Z</time>
      </trkpt>
      <trkpt lat="45.9599" lon="6.07013">
        <ele>740.833008</ele>
        <time>2011-04-16T15:50:00Z</time>
      </trkpt>
      <trkpt lat="45.95997" lon="6.0702">
        <ele>739.871826</ele>
        <time>2011-04-16T15:50:04Z</time>
      </trkpt>
      <trkpt lat="45.96002" lon="6.07034">
        <ele>739.391113</ele>
        <time>2011-04-16T15:50:13Z</time>
      </trkpt>
      <trkpt lat="45.96004" lon="6.07041">
        <ele>738.910645</ele>
        <time>2011-04-16T15:50:17Z</time>
      </trkpt>
      <trkpt lat="45.9601" lon="6.07055">
        <ele>738.429932</ele>
        <time>2011-04-16T15:50:26Z</time>
      </trkpt>
      <trkpt lat="45.9601" lon="6.07056">
        <ele>737.949219</ele>
        <time>2011-04-16T15:50:27Z</time>
      </trkpt>
      <trkpt lat="45.96013" lon="6.07074">
        <ele>737.949219</ele>
        <time>2011-04-16T15:50:35Z</time>
      </trkpt>
      <trkpt lat="45.96017" lon="6.07085">
        <ele>737.468506</ele>
        <time>2011-04-16T15:50:41Z</time>
      </trkpt>
      <trkpt lat="45.96019" lon="6.07092">
        <ele>737.949219</ele>
        <time>2011-04-16T15:50:43Z</time>
      </trkpt>
      <trkpt lat="45.9602" lon="6.07099">
        <ele>737.949219</ele>
        <time>2011-04-16T15:50:47Z</time>
      </trkpt>
      <trkpt lat="45.96024" lon="6.07112">
        <ele>736.987793</ele>
        <time>2011-04-16T15:50:55Z</time>
      </trkpt>
      <trkpt lat="45.96026" lon="6.07127">
        <ele>736.987793</ele>
        <time>2011-04-16T15:51:04Z</time>
      </trkpt>
      <trkpt lat="45.96026" lon="6.07128">
        <ele>736.507324</ele>
        <time>2011-04-16T15:51:05Z</time>
      </trkpt>
      <trkpt lat="45.96025" lon="6.07136">
        <ele>736.507324</ele>
        <time>2011-04-16T15:51:08Z</time>
      </trkpt>
      <trkpt lat="45.96023" lon="6.07147">
        <ele>735.06543</ele>
        <time>2011-04-16T15:51:15Z</time>
      </trkpt>
      <trkpt lat="45.9602" lon="6.07152">
        <ele>734.104004</ele>
        <time>2011-04-16T15:51:18Z</time>
      </trkpt>
      <trkpt lat="45.96018" lon="6.07161">
        <ele>735.06543</ele>
        <time>2011-04-16T15:51:24Z</time>
      </trkpt>
      <trkpt lat="45.96019" lon="6.07168">
        <ele>734.104004</ele>
        <time>2011-04-16T15:51:28Z</time>
      </trkpt>
      <trkpt lat="45.96028" lon="6.07184">
        <ele>733.623291</ele>
        <time>2011-04-16T15:51:37Z</time>
      </trkpt>
      <trkpt lat="45.96032" lon="6.07194">
        <ele>733.623291</ele>
        <time>2011-04-16T15:51:43Z</time>
      </trkpt>
      <trkpt lat="45.96035" lon="6.07197">
        <ele>733.623291</ele>
        <time>2011-04-16T15:51:46Z</time>
      </trkpt>
      <trkpt lat="45.96042" lon="6.07203">
        <ele>732.662109</ele>
        <time>2011-04-16T15:51:52Z</time>
      </trkpt>
      <trkpt lat="45.96044" lon="6.07209">
        <ele>732.181396</ele>
        <time>2011-04-16T15:51:57Z</time>
      </trkpt>
      <trkpt lat="45.96044" lon="6.07223">
        <ele>729.297119</ele>
        <time>2011-04-16T15:52:05Z</time>
      </trkpt>
      <trkpt lat="45.9604" lon="6.0724">
        <ele>727.855225</ele>
        <time>2011-04-16T15:52:13Z</time>
      </trkpt>
      <trkpt lat="45.96042" lon="6.07251">
        <ele>727.374756</ele>
        <time>2011-04-16T15:52:19Z</time>
      </trkpt>
      <trkpt lat="45.96043" lon="6.07253">
        <ele>727.855225</ele>
        <time>2011-04-16T15:52:20Z</time>
      </trkpt>
      <trkpt lat="45.96047" lon="6.07269">
        <ele>726.894043</ele>
        <time>2011-04-16T15:52:29Z</time>
      </trkpt>
      <trkpt lat="45.96047" lon="6.07277">
        <ele>726.41333</ele>
        <time>2011-04-16T15:52:37Z</time>
      </trkpt>
      <trkpt lat="45.96052" lon="6.07289">
        <ele>725.932617</ele>
        <time>2011-04-16T15:52:44Z</time>
      </trkpt>
      <trkpt lat="45.96059" lon="6.07304">
        <ele>725.932617</ele>
        <time>2011-04-16T15:52:52Z</time>
      </trkpt>
      <trkpt lat="45.96064" lon="6.07313">
        <ele>725.932617</ele>
        <time>2011-04-16T15:52:58Z</time>
      </trkpt>
      <trkpt lat="45.96071" lon="6.07325">
        <ele>724.971436</ele>
        <time>2011-04-16T15:53:07Z</time>
      </trkpt>
      <trkpt lat="45.96072" lon="6.07328">
        <ele>723.529541</ele>
        <time>2011-04-16T15:53:09Z</time>
      </trkpt>
      <trkpt lat="45.96072" lon="6.07348">
        <ele>721.606689</ele>
        <time>2011-04-16T15:53:19Z</time>
      </trkpt>
      <trkpt lat="45.96079" lon="6.07363">
        <ele>719.684326</ele>
        <time>2011-04-16T15:53:27Z</time>
      </trkpt>
      <trkpt lat="45.96079" lon="6.07375">
        <ele>718.242188</ele>
        <time>2011-04-16T15:53:36Z</time>
      </trkpt>
      <trkpt lat="45.96075" lon="6.0738">
        <ele>717.761475</ele>
        <time>2011-04-16T15:53:55Z</time>
      </trkpt>
      <trkpt lat="45.96074" lon="6.07382">
        <ele>717.281006</ele>
        <time>2011-04-16T15:54:01Z</time>
      </trkpt>
      <trkpt lat="45.96059" lon="6.07384">
        <ele>716.31958</ele>
        <time>2011-04-16T15:54:13Z</time>
      </trkpt>
      <trkpt lat="45.96047" lon="6.07382">
        <ele>716.31958</ele>
        <time>2011-04-16T15:54:22Z</time>
      </trkpt>
      <trkpt lat="45.96034" lon="6.07369">
        <ele>715.358154</ele>
        <time>2011-04-16T15:54:34Z</time>
      </trkpt>
      <trkpt lat="45.96019" lon="6.07366">
        <ele>715.358154</ele>
        <time>2011-04-16T15:54:45Z</time>
      </trkpt>
      <trkpt lat="45.96014" lon="6.07364">
        <ele>714.877441</ele>
        <time>2011-04-16T15:54:49Z</time>
      </trkpt>
      <trkpt lat="45.96002" lon="6.07359">
        <ele>713.435547</ele>
        <time>2011-04-16T15:54:58Z</time>
      </trkpt>
      <trkpt lat="45.95992" lon="6.07353">
        <ele>711.512939</ele>
        <time>2011-04-16T15:55:06Z</time>
      </trkpt>
      <trkpt lat="45.9598" lon="6.07344">
        <ele>708.148438</ele>
        <time>2011-04-16T15:55:15Z</time>
      </trkpt>
      <trkpt lat="45.95973" lon="6.07336">
        <ele>706.225586</ele>
        <time>2011-04-16T15:55:22Z</time>
      </trkpt>
      <trkpt lat="45.95964" lon="6.07332">
        <ele>703.82251</ele>
        <time>2011-04-16T15:55:30Z</time>
      </trkpt>
      <trkpt lat="45.95958" lon="6.07321">
        <ele>702.380371</ele>
        <time>2011-04-16T15:55:37Z</time>
      </trkpt>
      <trkpt lat="45.95951" lon="6.07308">
        <ele>701.419189</ele>
        <time>2011-04-16T15:55:44Z</time>
      </trkpt>
      <trkpt lat="45.95949" lon="6.07305">
        <ele>700.938477</ele>
        <time>2011-04-16T15:55:48Z</time>
      </trkpt>
      <trkpt lat="45.95943" lon="6.07296">
        <ele>699.496338</ele>
        <time>2011-04-16T15:55:55Z</time>
      </trkpt>
      <trkpt lat="45.95941" lon="6.07293">
        <ele>699.496338</ele>
        <time>2011-04-16T15:55:57Z</time>
      </trkpt>
      <trkpt lat="45.95932" lon="6.07286">
        <ele>697.57373</ele>
        <time>2011-04-16T15:56:04Z</time>
      </trkpt>
      <trkpt lat="45.95927" lon="6.07281">
        <ele>695.17041</ele>
        <time>2011-04-16T15:56:10Z</time>
      </trkpt>
      <trkpt lat="45.9592" lon="6.07277">
        <ele>694.209229</ele>
        <time>2011-04-16T15:56:16Z</time>
      </trkpt>
      <trkpt lat="45.95911" lon="6.07271">
        <ele>690.844482</ele>
        <time>2011-04-16T15:56:22Z</time>
      </trkpt>
      <trkpt lat="45.95906" lon="6.07273">
        <ele>690.844482</ele>
        <time>2011-04-16T15:56:30Z</time>
      </trkpt>
      <trkpt lat="45.959" lon="6.07269">
        <ele>689.402588</ele>
        <time>2011-04-16T15:56:38Z</time>
      </trkpt>
      <trkpt lat="45.95898" lon="6.07269">
        <ele>688.922119</ele>
        <time>2011-04-16T15:56:46Z</time>
      </trkpt>
      <trkpt lat="45.95891" lon="6.0726">
        <ele>686.999268</ele>
        <time>2011-04-16T15:56:55Z</time>
      </trkpt>
      <trkpt lat="45.95888" lon="6.07257">
        <ele>686.038086</ele>
        <time>2011-04-16T15:56:58Z</time>
      </trkpt>
      <trkpt lat="45.95876" lon="6.07252">
        <ele>685.557373</ele>
        <time>2011-04-16T15:57:08Z</time>
      </trkpt>
      <trkpt lat="45.95867" lon="6.07251">
        <ele>682.192627</ele>
        <time>2011-04-16T15:57:16Z</time>
      </trkpt>
      <trkpt lat="45.95867" lon="6.07244">
        <ele>682.192627</ele>
        <time>2011-04-16T15:57:38Z</time>
      </trkpt>
      <trkpt lat="45.95859" lon="6.07248">
        <ele>680.27002</ele>
        <time>2011-04-16T15:57:45Z</time>
      </trkpt>
      <trkpt lat="45.95854" lon="6.07249">
        <ele>678.828125</ele>
        <time>2011-04-16T15:57:49Z</time>
      </trkpt>
      <trkpt lat="45.9585" lon="6.07247">
        <ele>677.38623</ele>
        <time>2011-04-16T15:57:53Z</time>
      </trkpt>
      <trkpt lat="45.95843" lon="6.07251">
        <ele>676.905518</ele>
        <time>2011-04-16T15:57:57Z</time>
      </trkpt>
      <trkpt lat="45.95833" lon="6.07254">
        <ele>674.502197</ele>
        <time>2011-04-16T15:58:07Z</time>
      </trkpt>
      <trkpt lat="45.95831" lon="6.07253">
        <ele>674.021484</ele>
        <time>2011-04-16T15:58:09Z</time>
      </trkpt>
      <trkpt lat="45.95829" lon="6.07252">
        <ele>672.57959</ele>
        <time>2011-04-16T15:58:11Z</time>
      </trkpt>
      <trkpt lat="45.95819" lon="6.0725">
        <ele>671.618164</ele>
        <time>2011-04-16T15:58:19Z</time>
      </trkpt>
      <trkpt lat="45.95814" lon="6.07249">
        <ele>669.695801</ele>
        <time>2011-04-16T15:58:23Z</time>
      </trkpt>
      <trkpt lat="45.95804" lon="6.07249">
        <ele>667.292236</ele>
        <time>2011-04-16T15:58:31Z</time>
      </trkpt>
      <trkpt lat="45.95797" lon="6.07246">
        <ele>665.850342</ele>
        <time>2011-04-16T15:58:37Z</time>
      </trkpt>
      <trkpt lat="45.95788" lon="6.07242">
        <ele>663.92749</ele>
        <time>2011-04-16T15:58:45Z</time>
      </trkpt>
      <trkpt lat="45.95784" lon="6.07239">
        <ele>662.485596</ele>
        <time>2011-04-16T15:58:50Z</time>
      </trkpt>
      <trkpt lat="45.95771" lon="6.07234">
        <ele>659.601807</ele>
        <time>2011-04-16T15:59:02Z</time>
      </trkpt>
      <trkpt lat="45.95763" lon="6.0723">
        <ele>656.717773</ele>
        <time>2011-04-16T15:59:10Z</time>
      </trkpt>
      <trkpt lat="45.95758" lon="6.07225">
        <ele>655.756592</ele>
        <time>2011-04-16T15:59:15Z</time>
      </trkpt>
      <trkpt lat="45.95753" lon="6.07221">
        <ele>654.314697</ele>
        <time>2011-04-16T15:59:21Z</time>
      </trkpt>
      <trkpt lat="45.95746" lon="6.07219">
        <ele>652.391846</ele>
        <time>2011-04-16T15:59:28Z</time>
      </trkpt>
      <trkpt lat="45.95743" lon="6.07218">
        <ele>650.469238</ele>
        <time>2011-04-16T15:59:32Z</time>
      </trkpt>
      <trkpt lat="45.9574" lon="6.07214">
        <ele>649.0271</ele>
        <time>2011-04-16T15:59:36Z</time>
      </trkpt>
      <trkpt lat="45.95733" lon="6.07212">
        <ele>647.585205</ele>
        <time>2011-04-16T15:59:41Z</time>
      </trkpt>
      <trkpt lat="45.95727" lon="6.0721">
        <ele>646.624023</ele>
        <time>2011-04-16T15:59:46Z</time>
      </trkpt>
      <trkpt lat="45.9572" lon="6.07209">
        <ele>645.181885</ele>
        <time>2011-04-16T15:59:52Z</time>
      </trkpt>
      <trkpt lat="45.95715" lon="6.07206">
        <ele>643.259277</ele>
        <time>2011-04-16T15:59:58Z</time>
      </trkpt>
      <trkpt lat="45.9571" lon="6.07204">
        <ele>641.33667</ele>
        <time>2011-04-16T16:00:04Z</time>
      </trkpt>
      <trkpt lat="45.95706" lon="6.07197">
        <ele>640.855957</ele>
        <time>2011-04-16T16:00:09Z</time>
      </trkpt>
      <trkpt lat="45.95701" lon="6.07188">
        <ele>638.452881</ele>
        <time>2011-04-16T16:00:17Z</time>
      </trkpt>
      <trkpt lat="45.95696" lon="6.07184">
        <ele>636.049561</ele>
        <time>2011-04-16T16:00:23Z</time>
      </trkpt>
      <trkpt lat="45.95685" lon="6.07173">
        <ele>633.645996</ele>
        <time>2011-04-16T16:00:32Z</time>
      </trkpt>
      <trkpt lat="45.95678" lon="6.0717">
        <ele>632.204102</ele>
        <time>2011-04-16T16:00:39Z</time>
      </trkpt>
      <trkpt lat="45.95672" lon="6.07165">
        <ele>631.24292</ele>
        <time>2011-04-16T16:00:46Z</time>
      </trkpt>
      <trkpt lat="45.95669" lon="6.07157">
        <ele>630.281494</ele>
        <time>2011-04-16T16:00:55Z</time>
      </trkpt>
      <trkpt lat="45.95665" lon="6.0715">
        <ele>628.8396</ele>
        <time>2011-04-16T16:01:01Z</time>
      </trkpt>
      <trkpt lat="45.95656" lon="6.07135">
        <ele>627.878174</ele>
        <time>2011-04-16T16:01:11Z</time>
      </trkpt>
      <trkpt lat="45.95653" lon="6.07128">
        <ele>627.397705</ele>
        <time>2011-04-16T16:01:15Z</time>
      </trkpt>
      <trkpt lat="45.95644" lon="6.0712">
        <ele>624.994385</ele>
        <time>2011-04-16T16:01:24Z</time>
      </trkpt>
      <trkpt lat="45.95637" lon="6.07113">
        <ele>623.071777</ele>
        <time>2011-04-16T16:01:33Z</time>
      </trkpt>
      <trkpt lat="45.9563" lon="6.07116">
        <ele>622.110352</ele>
        <time>2011-04-16T16:02:06Z</time>
      </trkpt>
      <trkpt lat="45.95622" lon="6.07105">
        <ele>620.187744</ele>
        <time>2011-04-16T16:02:15Z</time>
      </trkpt>
      <trkpt lat="45.95613" lon="6.07095">
        <ele>618.745605</ele>
        <time>2011-04-16T16:02:24Z</time>
      </trkpt>
      <trkpt lat="45.95605" lon="6.07087">
        <ele>616.822998</ele>
        <time>2011-04-16T16:02:32Z</time>
      </trkpt>
      <trkpt lat="45.95599" lon="6.07085">
        <ele>614.900391</ele>
        <time>2011-04-16T16:02:37Z</time>
      </trkpt>
      <trkpt lat="45.95587" lon="6.07079">
        <ele>612.49707</ele>
        <time>2011-04-16T16:02:46Z</time>
      </trkpt>
      <trkpt lat="45.95576" lon="6.07073">
        <ele>610.09375</ele>
        <time>2011-04-16T16:02:55Z</time>
      </trkpt>
      <trkpt lat="45.9556" lon="6.07066">
        <ele>607.209961</ele>
        <time>2011-04-16T16:03:08Z</time>
      </trkpt>
      <trkpt lat="45.9555" lon="6.07059">
        <ele>606.729248</ele>
        <time>2011-04-16T16:03:17Z</time>
      </trkpt>
      <trkpt lat="45.95538" lon="6.07047">
        <ele>605.768066</ele>
        <time>2011-04-16T16:03:28Z</time>
      </trkpt>
      <trkpt lat="45.95529" lon="6.07036">
        <ele>605.768066</ele>
        <time>2011-04-16T16:03:37Z</time>
      </trkpt>
      <trkpt lat="45.9552" lon="6.07025">
        <ele>605.768066</ele>
        <time>2011-04-16T16:03:45Z</time>
      </trkpt>
      <trkpt lat="45.95511" lon="6.07016">
        <ele>606.729248</ele>
        <time>2011-04-16T16:03:53Z</time>
      </trkpt>
      <trkpt lat="45.95499" lon="6.07003">
        <ele>607.209961</ele>
        <time>2011-04-16T16:04:03Z</time>
      </trkpt>
      <trkpt lat="45.95492" lon="6.06995">
        <ele>606.729248</ele>
        <time>2011-04-16T16:04:10Z</time>
      </trkpt>
      <trkpt lat="45.95485" lon="6.06984">
        <ele>607.209961</ele>
        <time>2011-04-16T16:04:18Z</time>
      </trkpt>
      <trkpt lat="45.95476" lon="6.06969">
        <ele>607.209961</ele>
        <time>2011-04-16T16:04:28Z</time>
      </trkpt>
      <trkpt lat="45.95467" lon="6.06951">
        <ele>605.768066</ele>
        <time>2011-04-16T16:04:39Z</time>
      </trkpt>
      <trkpt lat="45.9546" lon="6.06933">
        <ele>605.287354</ele>
        <time>2011-04-16T16:04:49Z</time>
      </trkpt>
      <trkpt lat="45.95454" lon="6.06918">
        <ele>604.806641</ele>
        <time>2011-04-16T16:04:58Z</time>
      </trkpt>
      <trkpt lat="45.95446" lon="6.06912">
        <ele>603.845215</ele>
        <time>2011-04-16T16:05:06Z</time>
      </trkpt>
      <trkpt lat="45.9544" lon="6.06903">
        <ele>603.364502</ele>
        <time>2011-04-16T16:05:13Z</time>
      </trkpt>
      <trkpt lat="45.95431" lon="6.06889">
        <ele>603.364502</ele>
        <time>2011-04-16T16:05:23Z</time>
      </trkpt>
      <trkpt lat="45.95424" lon="6.06878">
        <ele>603.364502</ele>
        <time>2011-04-16T16:05:32Z</time>
      </trkpt>
      <trkpt lat="45.95416" lon="6.06867">
        <ele>601.922607</ele>
        <time>2011-04-16T16:05:41Z</time>
      </trkpt>
      <trkpt lat="45.95409" lon="6.06855">
        <ele>600.961182</ele>
        <time>2011-04-16T16:05:49Z</time>
      </trkpt>
      <trkpt lat="45.95402" lon="6.06842">
        <ele>598.557861</ele>
        <time>2011-04-16T16:05:58Z</time>
      </trkpt>
      <trkpt lat="45.95395" lon="6.06832">
        <ele>597.59668</ele>
        <time>2011-04-16T16:06:07Z</time>
      </trkpt>
      <trkpt lat="45.9539" lon="6.06821">
        <ele>599.038574</ele>
        <time>2011-04-16T16:06:15Z</time>
      </trkpt>
      <trkpt lat="45.95384" lon="6.06816">
        <ele>600</ele>
        <time>2011-04-16T16:06:21Z</time>
      </trkpt>
      <trkpt lat="45.95374" lon="6.06811">
        <ele>599.519287</ele>
        <time>2011-04-16T16:06:29Z</time>
      </trkpt>
      <trkpt lat="45.95366" lon="6.06808">
        <ele>600</ele>
        <time>2011-04-16T16:06:38Z</time>
      </trkpt>
      <trkpt lat="45.95357" lon="6.06805">
        <ele>599.038574</ele>
        <time>2011-04-16T16:06:45Z</time>
      </trkpt>
      <trkpt lat="45.95349" lon="6.06799">
        <ele>599.038574</ele>
        <time>2011-04-16T16:06:52Z</time>
      </trkpt>
      <trkpt lat="45.95339" lon="6.06793">
        <ele>598.077393</ele>
        <time>2011-04-16T16:07:01Z</time>
      </trkpt>
      <trkpt lat="45.95327" lon="6.06785">
        <ele>598.557861</ele>
        <time>2011-04-16T16:07:11Z</time>
      </trkpt>
      <trkpt lat="45.95316" lon="6.06781">
        <ele>599.038574</ele>
        <time>2011-04-16T16:07:20Z</time>
      </trkpt>
      <trkpt lat="45.95303" lon="6.06778">
        <ele>600.480713</ele>
        <time>2011-04-16T16:07:30Z</time>
      </trkpt>
      <trkpt lat="45.9529" lon="6.06773">
        <ele>599.519287</ele>
        <time>2011-04-16T16:07:42Z</time>
      </trkpt>
      <trkpt lat="45.95279" lon="6.06769">
        <ele>599.038574</ele>
        <time>2011-04-16T16:07:52Z</time>
      </trkpt>
      <trkpt lat="45.95265" lon="6.06764">
        <ele>598.557861</ele>
        <time>2011-04-16T16:08:03Z</time>
      </trkpt>
      <trkpt lat="45.95246" lon="6.06759">
        <ele>599.038574</ele>
        <time>2011-04-16T16:08:17Z</time>
      </trkpt>
      <trkpt lat="45.95234" lon="6.06756">
        <ele>600</ele>
        <time>2011-04-16T16:08:27Z</time>
      </trkpt>
      <trkpt lat="45.95227" lon="6.06756">
        <ele>600</ele>
        <time>2011-04-16T16:08:36Z</time>
      </trkpt>
      <trkpt lat="45.95223" lon="6.06755">
        <ele>600</ele>
        <time>2011-04-16T16:08:44Z</time>
      </trkpt>
      <trkpt lat="45.95215" lon="6.06751">
        <ele>598.557861</ele>
        <time>2011-04-16T16:09:39Z</time>
      </trkpt>
      <trkpt lat="45.95205" lon="6.06747">
        <ele>598.077393</ele>
        <time>2011-04-16T16:09:49Z</time>
      </trkpt>
      <trkpt lat="45.9519" lon="6.06743">
        <ele>596.635498</ele>
        <time>2011-04-16T16:10:03Z</time>
      </trkpt>
      <trkpt lat="45.95177" lon="6.06739">
        <ele>595.674072</ele>
        <time>2011-04-16T16:10:15Z</time>
      </trkpt>
      <trkpt lat="45.95164" lon="6.06733">
        <ele>594.232178</ele>
        <time>2011-04-16T16:10:26Z</time>
      </trkpt>
      <trkpt lat="45.95148" lon="6.06725">
        <ele>592.790283</ele>
        <time>2011-04-16T16:10:39Z</time>
      </trkpt>
      <trkpt lat="45.95137" lon="6.0672">
        <ele>591.828857</ele>
        <time>2011-04-16T16:10:48Z</time>
      </trkpt>
      <trkpt lat="45.95125" lon="6.06715">
        <ele>588.945068</ele>
        <time>2011-04-16T16:10:59Z</time>
      </trkpt>
      <trkpt lat="45.95117" lon="6.06711">
        <ele>587.983398</ele>
        <time>2011-04-16T16:11:07Z</time>
      </trkpt>
      <trkpt lat="45.95109" lon="6.0671">
        <ele>587.021973</ele>
        <time>2011-04-16T16:11:15Z</time>
      </trkpt>
      <trkpt lat="45.95096" lon="6.06711">
        <ele>585.099609</ele>
        <time>2011-04-16T16:11:25Z</time>
      </trkpt>
      <trkpt lat="45.95076" lon="6.06711">
        <ele>584.138184</ele>
        <time>2011-04-16T16:11:39Z</time>
      </trkpt>
      <trkpt lat="45.95052" lon="6.0671">
        <ele>582.696289</ele>
        <time>2011-04-16T16:11:56Z</time>
      </trkpt>
      <trkpt lat="45.95034" lon="6.06709">
        <ele>582.215576</ele>
        <time>2011-04-16T16:12:09Z</time>
      </trkpt>
      <trkpt lat="45.95016" lon="6.06707">
        <ele>580.773682</ele>
        <time>2011-04-16T16:12:23Z</time>
      </trkpt>
      <trkpt lat="45.95001" lon="6.06703">
        <ele>579.812256</ele>
        <time>2011-04-16T16:12:35Z</time>
      </trkpt>
      <trkpt lat="45.94993" lon="6.067">
        <ele>577.889648</ele>
        <time>2011-04-16T16:12:43Z</time>
      </trkpt>
      <trkpt lat="45.94985" lon="6.06698">
        <ele>576.928467</ele>
        <time>2011-04-16T16:12:51Z</time>
      </trkpt>
      <trkpt lat="45.94975" lon="6.06697">
        <ele>576.447754</ele>
        <time>2011-04-16T16:13:02Z</time>
      </trkpt>
      <trkpt lat="45.94966" lon="6.06691">
        <ele>575.005859</ele>
        <time>2011-04-16T16:13:11Z</time>
      </trkpt>
      <trkpt lat="45.94957" lon="6.06689">
        <ele>573.083252</ele>
        <time>2011-04-16T16:13:21Z</time>
      </trkpt>
      <trkpt lat="45.94952" lon="6.0669">
        <ele>572.602539</ele>
        <time>2011-04-16T16:13:26Z</time>
      </trkpt>
      <trkpt lat="45.94944" lon="6.06691">
        <ele>572.602539</ele>
        <time>2011-04-16T16:13:33Z</time>
      </trkpt>
      <trkpt lat="45.94931" lon="6.06688">
        <ele>571.1604</ele>
        <time>2011-04-16T16:13:43Z</time>
      </trkpt>
      <trkpt lat="45.94919" lon="6.06687">
        <ele>569.718506</ele>
        <time>2011-04-16T16:13:52Z</time>
      </trkpt>
      <trkpt lat="45.94909" lon="6.06689">
        <ele>568.276367</ele>
        <time>2011-04-16T16:14:02Z</time>
      </trkpt>
      <trkpt lat="45.94906" lon="6.0669">
        <ele>567.315186</ele>
        <time>2011-04-16T16:14:10Z</time>
      </trkpt>
      <trkpt lat="45.94904" lon="6.06689">
        <ele>567.315186</ele>
        <time>2011-04-16T16:14:20Z</time>
      </trkpt>
      <trkpt lat="45.94903" lon="6.06687">
        <ele>567.315186</ele>
        <time>2011-04-16T16:14:31Z</time>
      </trkpt>
      <trkpt lat="45.949" lon="6.0668">
        <ele>567.795654</ele>
        <time>2011-04-16T16:14:40Z</time>
      </trkpt>
      <trkpt lat="45.94899" lon="6.06676">
        <ele>569.237793</ele>
        <time>2011-04-16T16:14:45Z</time>
      </trkpt>
      <trkpt lat="45.94896" lon="6.0667">
        <ele>571.1604</ele>
        <time>2011-04-16T16:14:53Z</time>
      </trkpt>
      <trkpt lat="45.94889" lon="6.06667">
        <ele>572.602539</ele>
        <time>2011-04-16T16:15:02Z</time>
      </trkpt>
      <trkpt lat="45.94888" lon="6.06667">
        <ele>572.121826</ele>
        <time>2011-04-16T16:15:03Z</time>
      </trkpt>
      <trkpt lat="45.94882" lon="6.06666">
        <ele>570.679688</ele>
        <time>2011-04-16T16:15:11Z</time>
      </trkpt>
      <trkpt lat="45.94874" lon="6.06665">
        <ele>569.237793</ele>
        <time>2011-04-16T16:15:19Z</time>
      </trkpt>
      <trkpt lat="45.94866" lon="6.06662">
        <ele>567.315186</ele>
        <time>2011-04-16T16:15:26Z</time>
      </trkpt>
      <trkpt lat="45.94861" lon="6.06662">
        <ele>566.834473</ele>
        <time>2011-04-16T16:15:32Z</time>
      </trkpt>
      <trkpt lat="45.94851" lon="6.06662">
        <ele>565.873291</ele>
        <time>2011-04-16T16:15:41Z</time>
      </trkpt>
      <trkpt lat="45.94848" lon="6.06662">
        <ele>565.873291</ele>
        <time>2011-04-16T16:15:44Z</time>
      </trkpt>
      <trkpt lat="45.94837" lon="6.06661">
        <ele>563.950439</ele>
        <time>2011-04-16T16:15:52Z</time>
      </trkpt>
      <trkpt lat="45.94828" lon="6.06659">
        <ele>562.508545</ele>
        <time>2011-04-16T16:16:01Z</time>
      </trkpt>
      <trkpt lat="45.94821" lon="6.0666">
        <ele>561.06665</ele>
        <time>2011-04-16T16:16:08Z</time>
      </trkpt>
      <trkpt lat="45.9481" lon="6.06661">
        <ele>561.06665</ele>
        <time>2011-04-16T16:16:15Z</time>
      </trkpt>
      <trkpt lat="45.94805" lon="6.06663">
        <ele>560.585938</ele>
        <time>2011-04-16T16:16:19Z</time>
      </trkpt>
      <trkpt lat="45.94798" lon="6.06666">
        <ele>558.66333</ele>
        <time>2011-04-16T16:16:25Z</time>
      </trkpt>
      <trkpt lat="45.94788" lon="6.06666">
        <ele>557.702148</ele>
        <time>2011-04-16T16:16:33Z</time>
      </trkpt>
      <trkpt lat="45.94776" lon="6.06669">
        <ele>555.779297</ele>
        <time>2011-04-16T16:16:44Z</time>
      </trkpt>
      <trkpt lat="45.9477" lon="6.06668">
        <ele>556.740723</ele>
        <time>2011-04-16T16:16:49Z</time>
      </trkpt>
      <trkpt lat="45.94764" lon="6.06668">
        <ele>556.26001</ele>
        <time>2011-04-16T16:16:54Z</time>
      </trkpt>
      <trkpt lat="45.94753" lon="6.06665">
        <ele>557.221436</ele>
        <time>2011-04-16T16:17:03Z</time>
      </trkpt>
      <trkpt lat="45.94746" lon="6.06663">
        <ele>557.221436</ele>
        <time>2011-04-16T16:17:08Z</time>
      </trkpt>
      <trkpt lat="45.94739" lon="6.06662">
        <ele>556.740723</ele>
        <time>2011-04-16T16:17:14Z</time>
      </trkpt>
      <trkpt lat="45.94735" lon="6.06659">
        <ele>555.779297</ele>
        <time>2011-04-16T16:17:19Z</time>
      </trkpt>
      <trkpt lat="45.94731" lon="6.06657">
        <ele>555.298584</ele>
        <time>2011-04-16T16:17:24Z</time>
      </trkpt>
      <trkpt lat="45.94724" lon="6.06657">
        <ele>554.337402</ele>
        <time>2011-04-16T16:17:30Z</time>
      </trkpt>
      <trkpt lat="45.94717" lon="6.06658">
        <ele>552.895264</ele>
        <time>2011-04-16T16:17:36Z</time>
      </trkpt>
      <trkpt lat="45.94714" lon="6.06657">
        <ele>551.453369</ele>
        <time>2011-04-16T16:17:39Z</time>
      </trkpt>
      <trkpt lat="45.94706" lon="6.06659">
        <ele>550.492188</ele>
        <time>2011-04-16T16:17:47Z</time>
      </trkpt>
      <trkpt lat="45.94698" lon="6.06658">
        <ele>550.011475</ele>
        <time>2011-04-16T16:17:54Z</time>
      </trkpt>
      <trkpt lat="45.94692" lon="6.06653">
        <ele>549.530762</ele>
        <time>2011-04-16T16:17:59Z</time>
      </trkpt>
      <trkpt lat="45.94683" lon="6.0665">
        <ele>549.050049</ele>
        <time>2011-04-16T16:18:05Z</time>
      </trkpt>
      <trkpt lat="45.94678" lon="6.06646">
        <ele>549.050049</ele>
        <time>2011-04-16T16:18:10Z</time>
      </trkpt>
      <trkpt lat="45.94669" lon="6.06642">
        <ele>549.530762</ele>
        <time>2011-04-16T16:18:17Z</time>
      </trkpt>
      <trkpt lat="45.94663" lon="6.06642">
        <ele>549.050049</ele>
        <time>2011-04-16T16:18:22Z</time>
      </trkpt>
      <trkpt lat="45.94656" lon="6.06641">
        <ele>549.530762</ele>
        <time>2011-04-16T16:18:28Z</time>
      </trkpt>
      <trkpt lat="45.94649" lon="6.0664">
        <ele>548.088867</ele>
        <time>2011-04-16T16:18:34Z</time>
      </trkpt>
      <trkpt lat="45.94639" lon="6.06643">
        <ele>547.608154</ele>
        <time>2011-04-16T16:18:42Z</time>
      </trkpt>
      <trkpt lat="45.94633" lon="6.06643">
        <ele>546.646851</ele>
        <time>2011-04-16T16:18:47Z</time>
      </trkpt>
      <trkpt lat="45.94628" lon="6.06642">
        <ele>545.204834</ele>
        <time>2011-04-16T16:18:51Z</time>
      </trkpt>
      <trkpt lat="45.94625" lon="6.0664">
        <ele>544.243652</ele>
        <time>2011-04-16T16:18:54Z</time>
      </trkpt>
      <trkpt lat="45.94622" lon="6.06641">
        <ele>543.282104</ele>
        <time>2011-04-16T16:18:56Z</time>
      </trkpt>
      <trkpt lat="45.94613" lon="6.06634">
        <ele>540.398315</ele>
        <time>2011-04-16T16:19:03Z</time>
      </trkpt>
      <trkpt lat="45.94609" lon="6.06636">
        <ele>539.43689</ele>
        <time>2011-04-16T16:19:06Z</time>
      </trkpt>
      <trkpt lat="45.94603" lon="6.06636">
        <ele>537.033691</ele>
        <time>2011-04-16T16:19:10Z</time>
      </trkpt>
      <trkpt lat="45.94596" lon="6.06633">
        <ele>535.591553</ele>
        <time>2011-04-16T16:19:16Z</time>
      </trkpt>
      <trkpt lat="45.94592" lon="6.06632">
        <ele>534.630371</ele>
        <time>2011-04-16T16:19:20Z</time>
      </trkpt>
      <trkpt lat="45.94588" lon="6.06631">
        <ele>532.227051</ele>
        <time>2011-04-16T16:19:26Z</time>
      </trkpt>
      <trkpt lat="45.94575" lon="6.06626">
        <ele>528.862549</ele>
        <time>2011-04-16T16:19:38Z</time>
      </trkpt>
      <trkpt lat="45.94574" lon="6.06626">
        <ele>527.901001</ele>
        <time>2011-04-16T16:19:40Z</time>
      </trkpt>
      <trkpt lat="45.94566" lon="6.06624">
        <ele>526.939819</ele>
        <time>2011-04-16T16:19:46Z</time>
      </trkpt>
      <trkpt lat="45.94559" lon="6.06626">
        <ele>525.497803</ele>
        <time>2011-04-16T16:19:51Z</time>
      </trkpt>
      <trkpt lat="45.9455" lon="6.06627">
        <ele>524.536499</ele>
        <time>2011-04-16T16:19:57Z</time>
      </trkpt>
      <trkpt lat="45.94545" lon="6.06627">
        <ele>523.575195</ele>
        <time>2011-04-16T16:20:02Z</time>
      </trkpt>
      <trkpt lat="45.9454" lon="6.06628">
        <ele>521.652588</ele>
        <time>2011-04-16T16:20:08Z</time>
      </trkpt>
      <trkpt lat="45.94531" lon="6.06629">
        <ele>519.729858</ele>
        <time>2011-04-16T16:20:16Z</time>
      </trkpt>
      <trkpt lat="45.94524" lon="6.0663">
        <ele>518.287842</ele>
        <time>2011-04-16T16:20:23Z</time>
      </trkpt>
      <trkpt lat="45.94511" lon="6.06631">
        <ele>515.884644</ele>
        <time>2011-04-16T16:20:34Z</time>
      </trkpt>
      <trkpt lat="45.94505" lon="6.06631">
        <ele>513.962036</ele>
        <time>2011-04-16T16:20:39Z</time>
      </trkpt>
      <trkpt lat="45.94504" lon="6.06631">
        <ele>513.481445</ele>
        <time>2011-04-16T16:20:40Z</time>
      </trkpt>
      <trkpt lat="45.94495" lon="6.0663">
        <ele>512.039429</ele>
        <time>2011-04-16T16:20:47Z</time>
      </trkpt>
      <trkpt lat="45.94484" lon="6.06633">
        <ele>510.116699</ele>
        <time>2011-04-16T16:20:58Z</time>
      </trkpt>
      <trkpt lat="45.94476" lon="6.06636">
        <ele>508.674683</ele>
        <time>2011-04-16T16:21:03Z</time>
      </trkpt>
      <trkpt lat="45.94472" lon="6.06636">
        <ele>507.232788</ele>
        <time>2011-04-16T16:21:08Z</time>
      </trkpt>
      <trkpt lat="45.94467" lon="6.06637">
        <ele>505.790894</ele>
        <time>2011-04-16T16:21:13Z</time>
      </trkpt>
      <trkpt lat="45.9446" lon="6.06634">
        <ele>505.310181</ele>
        <time>2011-04-16T16:21:19Z</time>
      </trkpt>
      <trkpt lat="45.94451" lon="6.06632">
        <ele>502.426147</ele>
        <time>2011-04-16T16:21:27Z</time>
      </trkpt>
      <trkpt lat="45.94445" lon="6.06631">
        <ele>501.464844</ele>
        <time>2011-04-16T16:21:34Z</time>
      </trkpt>
      <trkpt lat="45.94439" lon="6.06631">
        <ele>499.542236</ele>
        <time>2011-04-16T16:21:41Z</time>
      </trkpt>
      <trkpt lat="45.9443" lon="6.0663">
        <ele>497.619629</ele>
        <time>2011-04-16T16:21:48Z</time>
      </trkpt>
      <trkpt lat="45.94423" lon="6.06628">
        <ele>496.177734</ele>
        <time>2011-04-16T16:21:54Z</time>
      </trkpt>
      <trkpt lat="45.94417" lon="6.06626">
        <ele>495.216187</ele>
        <time>2011-04-16T16:21:59Z</time>
      </trkpt>
      <trkpt lat="45.94411" lon="6.0662">
        <ele>494.255005</ele>
        <time>2011-04-16T16:22:05Z</time>
      </trkpt>
      <trkpt lat="45.94406" lon="6.06616">
        <ele>492.812988</ele>
        <time>2011-04-16T16:22:11Z</time>
      </trkpt>
      <trkpt lat="45.94396" lon="6.06616">
        <ele>490.890381</ele>
        <time>2011-04-16T16:22:19Z</time>
      </trkpt>
      <trkpt lat="45.94392" lon="6.06615">
        <ele>489.448364</ele>
        <time>2011-04-16T16:22:24Z</time>
      </trkpt>
      <trkpt lat="45.94387" lon="6.06612">
        <ele>488.00647</ele>
        <time>2011-04-16T16:22:29Z</time>
      </trkpt>
      <trkpt lat="45.94381" lon="6.06609">
        <ele>487.045044</ele>
        <time>2011-04-16T16:22:34Z</time>
      </trkpt>
      <trkpt lat="45.94375" lon="6.06604">
        <ele>485.603027</ele>
        <time>2011-04-16T16:22:40Z</time>
      </trkpt>
      <trkpt lat="45.94367" lon="6.06601">
        <ele>484.641846</ele>
        <time>2011-04-16T16:22:46Z</time>
      </trkpt>
      <trkpt lat="45.94361" lon="6.066">
        <ele>483.199829</ele>
        <time>2011-04-16T16:22:53Z</time>
      </trkpt>
      <trkpt lat="45.94356" lon="6.06598">
        <ele>482.238525</ele>
        <time>2011-04-16T16:22:59Z</time>
      </trkpt>
      <trkpt lat="45.94349" lon="6.06594">
        <ele>480.796631</ele>
        <time>2011-04-16T16:23:04Z</time>
      </trkpt>
      <trkpt lat="45.9434" lon="6.06591">
        <ele>479.835083</ele>
        <time>2011-04-16T16:23:12Z</time>
      </trkpt>
      <trkpt lat="45.94334" lon="6.06587">
        <ele>477.912476</ele>
        <time>2011-04-16T16:23:18Z</time>
      </trkpt>
      <trkpt lat="45.94326" lon="6.06584">
        <ele>476.951294</ele>
        <time>2011-04-16T16:23:25Z</time>
      </trkpt>
      <trkpt lat="45.94318" lon="6.06582">
        <ele>475.989868</ele>
        <time>2011-04-16T16:23:42Z</time>
      </trkpt>
      <trkpt lat="45.94314" lon="6.06584">
        <ele>475.028687</ele>
        <time>2011-04-16T16:23:50Z</time>
      </trkpt>
      <trkpt lat="45.94311" lon="6.06585">
        <ele>475.028687</ele>
        <time>2011-04-16T16:24:00Z</time>
      </trkpt>
      <trkpt lat="45.94307" lon="6.06586">
        <ele>475.028687</ele>
        <time>2011-04-16T16:24:08Z</time>
      </trkpt>
      <trkpt lat="45.94305" lon="6.06583">
        <ele>475.509277</ele>
        <time>2011-04-16T16:24:30Z</time>
      </trkpt>
      <trkpt lat="45.94305" lon="6.06576">
        <ele>474.547974</ele>
        <time>2011-04-16T16:24:41Z</time>
      </trkpt>
      <trkpt lat="45.94303" lon="6.06572">
        <ele>473.58667</ele>
        <time>2011-04-16T16:24:44Z</time>
      </trkpt>
      <trkpt lat="45.94299" lon="6.06563">
        <ele>472.625366</ele>
        <time>2011-04-16T16:24:51Z</time>
      </trkpt>
      <trkpt lat="45.94294" lon="6.06554">
        <ele>471.18335</ele>
        <time>2011-04-16T16:24:59Z</time>
      </trkpt>
      <trkpt lat="45.94291" lon="6.06548">
        <ele>470.221924</ele>
        <time>2011-04-16T16:25:03Z</time>
      </trkpt>
      <trkpt lat="45.94283" lon="6.06546">
        <ele>468.780029</ele>
        <time>2011-04-16T16:25:10Z</time>
      </trkpt>
    </trkseg>
  </trk>
</gpx>